<?xml version="1.0" encoding="UTF-8" standalone="no" ?>
<gpx xmlns="http://www.topografix.com/GPX/1/1" xmlns:xsi="http://www.w3.org/2001/XMLSchema-instance" xsi:schemaLocation="http://www.topografix.com/GPX/1/1 http://www.topografix.com/GPX/1/1/gpx.xsd" version="1.1" creator="VisuGPX - https://www.visugpx.com">
  <metadata>
    <name>Ceyreste - Vallon du Diable</name>
    <desc><![CDATA[adaptation de la trace Utagawa 2912]]></desc>
  </metadata>
  <trk>
    <name><![CDATA[2012-01-22 Ut2012]]></name>
    <trkseg>
      <trkpt lat="43.21567" lon="5.62394">
        <ele>108.76623535156</ele>
        <time>2012-01-22T09:57:25Z</time>
      </trkpt>
      <trkpt lat="43.21567" lon="5.62394">
        <ele>108.76623535156</ele>
        <time>2012-01-22T09:57:27Z</time>
      </trkpt>
      <trkpt lat="43.21567" lon="5.62394">
        <ele>108.76623535156</ele>
        <time>2012-01-22T09:57:28Z</time>
      </trkpt>
      <trkpt lat="43.21565" lon="5.62393">
        <ele>108.76623535156</ele>
        <time>2012-01-22T09:58:54Z</time>
      </trkpt>
      <trkpt lat="43.21564" lon="5.62394">
        <ele>108.28564453125</ele>
        <time>2012-01-22T09:59:08Z</time>
      </trkpt>
      <trkpt lat="43.21545" lon="5.62367">
        <ele>107.32434082031</ele>
        <time>2012-01-22T09:59:21Z</time>
      </trkpt>
      <trkpt lat="43.21551" lon="5.62359">
        <ele>104.4404296875</ele>
        <time>2012-01-22T09:59:25Z</time>
      </trkpt>
      <trkpt lat="43.2156" lon="5.62352">
        <ele>102.99829101562</ele>
        <time>2012-01-22T09:59:28Z</time>
      </trkpt>
      <trkpt lat="43.21583" lon="5.6233">
        <ele>100.59509277344</ele>
        <time>2012-01-22T09:59:34Z</time>
      </trkpt>
      <trkpt lat="43.21594" lon="5.62324">
        <ele>99.6337890625</ele>
        <time>2012-01-22T09:59:36Z</time>
      </trkpt>
      <trkpt lat="43.21614" lon="5.62315">
        <ele>97.711181640625</ele>
        <time>2012-01-22T09:59:39Z</time>
      </trkpt>
      <trkpt lat="43.21632" lon="5.62309">
        <ele>98.672485351562</ele>
        <time>2012-01-22T09:59:42Z</time>
      </trkpt>
      <trkpt lat="43.21646" lon="5.62293">
        <ele>100.59509277344</ele>
        <time>2012-01-22T09:59:48Z</time>
      </trkpt>
      <trkpt lat="43.21635" lon="5.62265">
        <ele>103.95971679688</ele>
        <time>2012-01-22T10:00:00Z</time>
      </trkpt>
      <trkpt lat="43.21634" lon="5.62263">
        <ele>103.95971679688</ele>
        <time>2012-01-22T10:00:01Z</time>
      </trkpt>
      <trkpt lat="43.21627" lon="5.62253">
        <ele>103.95971679688</ele>
        <time>2012-01-22T10:00:06Z</time>
      </trkpt>
      <trkpt lat="43.21609" lon="5.62209">
        <ele>106.84362792969</ele>
        <time>2012-01-22T10:00:26Z</time>
      </trkpt>
      <trkpt lat="43.21604" lon="5.62178">
        <ele>107.32434082031</ele>
        <time>2012-01-22T10:00:38Z</time>
      </trkpt>
      <trkpt lat="43.21612" lon="5.62173">
        <ele>109.24694824219</ele>
        <time>2012-01-22T10:00:43Z</time>
      </trkpt>
      <trkpt lat="43.21634" lon="5.62179">
        <ele>112.61157226562</ele>
        <time>2012-01-22T10:00:59Z</time>
      </trkpt>
      <trkpt lat="43.21643" lon="5.62186">
        <ele>113.57299804688</ele>
        <time>2012-01-22T10:01:07Z</time>
      </trkpt>
      <trkpt lat="43.21654" lon="5.62184">
        <ele>115.01489257812</ele>
        <time>2012-01-22T10:01:15Z</time>
      </trkpt>
      <trkpt lat="43.2167" lon="5.62185">
        <ele>117.41821289062</ele>
        <time>2012-01-22T10:01:26Z</time>
      </trkpt>
      <trkpt lat="43.2168" lon="5.62189">
        <ele>118.37939453125</ele>
        <time>2012-01-22T10:01:33Z</time>
      </trkpt>
      <trkpt lat="43.21697" lon="5.62199">
        <ele>120.78283691406</ele>
        <time>2012-01-22T10:01:46Z</time>
      </trkpt>
      <trkpt lat="43.21728" lon="5.62196">
        <ele>124.14733886719</ele>
        <time>2012-01-22T10:02:06Z</time>
      </trkpt>
      <trkpt lat="43.21755" lon="5.62194">
        <ele>126.55065917969</ele>
        <time>2012-01-22T10:02:25Z</time>
      </trkpt>
      <trkpt lat="43.21761" lon="5.62225">
        <ele>128.9541015625</ele>
        <time>2012-01-22T10:02:42Z</time>
      </trkpt>
      <trkpt lat="43.21761" lon="5.62229">
        <ele>129.43469238281</ele>
        <time>2012-01-22T10:02:44Z</time>
      </trkpt>
      <trkpt lat="43.21764" lon="5.62241">
        <ele>129.91528320312</ele>
        <time>2012-01-22T10:02:50Z</time>
      </trkpt>
      <trkpt lat="43.21774" lon="5.6224">
        <ele>131.35729980469</ele>
        <time>2012-01-22T10:02:59Z</time>
      </trkpt>
      <trkpt lat="43.21787" lon="5.62199">
        <ele>133.76049804688</ele>
        <time>2012-01-22T10:03:21Z</time>
      </trkpt>
      <trkpt lat="43.21781" lon="5.62157">
        <ele>136.16394042969</ele>
        <time>2012-01-22T10:03:43Z</time>
      </trkpt>
      <trkpt lat="43.21768" lon="5.62122">
        <ele>137.12524414062</ele>
        <time>2012-01-22T10:04:00Z</time>
      </trkpt>
      <trkpt lat="43.21781" lon="5.62125">
        <ele>138.08654785156</ele>
        <time>2012-01-22T10:04:10Z</time>
      </trkpt>
      <trkpt lat="43.21803" lon="5.62157">
        <ele>140.00915527344</ele>
        <time>2012-01-22T10:04:28Z</time>
      </trkpt>
      <trkpt lat="43.21822" lon="5.62193">
        <ele>142.41247558594</ele>
        <time>2012-01-22T10:04:47Z</time>
      </trkpt>
      <trkpt lat="43.21829" lon="5.62209">
        <ele>143.85437011719</ele>
        <time>2012-01-22T10:04:56Z</time>
      </trkpt>
      <trkpt lat="43.21837" lon="5.62195">
        <ele>145.29638671875</ele>
        <time>2012-01-22T10:05:04Z</time>
      </trkpt>
      <trkpt lat="43.21837" lon="5.62164">
        <ele>146.73840332031</ele>
        <time>2012-01-22T10:05:17Z</time>
      </trkpt>
      <trkpt lat="43.21834" lon="5.62122">
        <ele>150.10302734375</ele>
        <time>2012-01-22T10:05:35Z</time>
      </trkpt>
      <trkpt lat="43.21833" lon="5.62078">
        <ele>152.50634765625</ele>
        <time>2012-01-22T10:05:53Z</time>
      </trkpt>
      <trkpt lat="43.21835" lon="5.62067">
        <ele>152.50634765625</ele>
        <time>2012-01-22T10:05:57Z</time>
      </trkpt>
      <trkpt lat="43.21841" lon="5.62059">
        <ele>152.98693847656</ele>
        <time>2012-01-22T10:06:02Z</time>
      </trkpt>
      <trkpt lat="43.21847" lon="5.62063">
        <ele>154.42895507812</ele>
        <time>2012-01-22T10:06:06Z</time>
      </trkpt>
      <trkpt lat="43.21866" lon="5.62095">
        <ele>157.79357910156</ele>
        <time>2012-01-22T10:06:26Z</time>
      </trkpt>
      <trkpt lat="43.21891" lon="5.62122">
        <ele>160.67749023438</ele>
        <time>2012-01-22T10:06:47Z</time>
      </trkpt>
      <trkpt lat="43.21918" lon="5.6215">
        <ele>162.60009765625</ele>
        <time>2012-01-22T10:07:08Z</time>
      </trkpt>
      <trkpt lat="43.21937" lon="5.6216">
        <ele>165.96472167969</ele>
        <time>2012-01-22T10:07:22Z</time>
      </trkpt>
      <trkpt lat="43.21947" lon="5.62165">
        <ele>166.92602539062</ele>
        <time>2012-01-22T10:07:29Z</time>
      </trkpt>
      <trkpt lat="43.21972" lon="5.62171">
        <ele>168.84875488281</ele>
        <time>2012-01-22T10:07:47Z</time>
      </trkpt>
      <trkpt lat="43.21985" lon="5.62171">
        <ele>170.77136230469</ele>
        <time>2012-01-22T10:07:56Z</time>
      </trkpt>
      <trkpt lat="43.22021" lon="5.62188">
        <ele>173.6552734375</ele>
        <time>2012-01-22T10:08:22Z</time>
      </trkpt>
      <trkpt lat="43.22025" lon="5.6219">
        <ele>175.57788085938</ele>
        <time>2012-01-22T10:08:25Z</time>
      </trkpt>
      <trkpt lat="43.22045" lon="5.62203">
        <ele>177.98120117188</ele>
        <time>2012-01-22T10:08:40Z</time>
      </trkpt>
      <trkpt lat="43.22061" lon="5.62212">
        <ele>179.42321777344</ele>
        <time>2012-01-22T10:08:52Z</time>
      </trkpt>
      <trkpt lat="43.22081" lon="5.62216">
        <ele>181.34582519531</ele>
        <time>2012-01-22T10:09:07Z</time>
      </trkpt>
      <trkpt lat="43.22101" lon="5.62214">
        <ele>184.22985839844</ele>
        <time>2012-01-22T10:09:21Z</time>
      </trkpt>
      <trkpt lat="43.22121" lon="5.62207">
        <ele>186.63317871094</ele>
        <time>2012-01-22T10:09:42Z</time>
      </trkpt>
      <trkpt lat="43.22121" lon="5.62207">
        <ele>184.71057128906</ele>
        <time>2012-01-22T10:10:46Z</time>
      </trkpt>
      <trkpt lat="43.22124" lon="5.62206">
        <ele>184.71057128906</ele>
        <time>2012-01-22T10:10:48Z</time>
      </trkpt>
      <trkpt lat="43.22139" lon="5.622">
        <ele>187.11376953125</ele>
        <time>2012-01-22T10:10:58Z</time>
      </trkpt>
      <trkpt lat="43.2217" lon="5.62177">
        <ele>189.51696777344</ele>
        <time>2012-01-22T10:11:21Z</time>
      </trkpt>
      <trkpt lat="43.22186" lon="5.62162">
        <ele>192.88171386719</ele>
        <time>2012-01-22T10:11:33Z</time>
      </trkpt>
      <trkpt lat="43.22198" lon="5.62142">
        <ele>192.88171386719</ele>
        <time>2012-01-22T10:11:45Z</time>
      </trkpt>
      <trkpt lat="43.22203" lon="5.62128">
        <ele>196.72692871094</ele>
        <time>2012-01-22T10:11:52Z</time>
      </trkpt>
      <trkpt lat="43.22204" lon="5.62125">
        <ele>197.68823242188</ele>
        <time>2012-01-22T10:11:54Z</time>
      </trkpt>
      <trkpt lat="43.22207" lon="5.62106">
        <ele>196.24633789062</ele>
        <time>2012-01-22T10:12:04Z</time>
      </trkpt>
      <trkpt lat="43.22207" lon="5.62092">
        <ele>197.20751953125</ele>
        <time>2012-01-22T10:12:10Z</time>
      </trkpt>
      <trkpt lat="43.2221" lon="5.62058">
        <ele>199.13012695312</ele>
        <time>2012-01-22T10:12:25Z</time>
      </trkpt>
      <trkpt lat="43.22222" lon="5.61999">
        <ele>200.572265625</ele>
        <time>2012-01-22T10:12:44Z</time>
      </trkpt>
      <trkpt lat="43.22227" lon="5.61931">
        <ele>202.49487304688</ele>
        <time>2012-01-22T10:13:04Z</time>
      </trkpt>
      <trkpt lat="43.22228" lon="5.61887">
        <ele>204.89807128906</ele>
        <time>2012-01-22T10:13:21Z</time>
      </trkpt>
      <trkpt lat="43.22229" lon="5.61848">
        <ele>207.78210449219</ele>
        <time>2012-01-22T10:13:38Z</time>
      </trkpt>
      <trkpt lat="43.22233" lon="5.61807">
        <ele>210.18542480469</ele>
        <time>2012-01-22T10:13:57Z</time>
      </trkpt>
      <trkpt lat="43.22243" lon="5.61762">
        <ele>213.55004882812</ele>
        <time>2012-01-22T10:14:20Z</time>
      </trkpt>
      <trkpt lat="43.2225" lon="5.61721">
        <ele>216.43395996094</ele>
        <time>2012-01-22T10:14:40Z</time>
      </trkpt>
      <trkpt lat="43.2225" lon="5.6172">
        <ele>216.43395996094</ele>
        <time>2012-01-22T10:14:41Z</time>
      </trkpt>
      <trkpt lat="43.2225" lon="5.61712">
        <ele>219.31799316406</ele>
        <time>2012-01-22T10:14:45Z</time>
      </trkpt>
      <trkpt lat="43.22249" lon="5.61664">
        <ele>221.24060058594</ele>
        <time>2012-01-22T10:15:09Z</time>
      </trkpt>
      <trkpt lat="43.22248" lon="5.61626">
        <ele>224.12451171875</ele>
        <time>2012-01-22T10:15:27Z</time>
      </trkpt>
      <trkpt lat="43.22248" lon="5.61624">
        <ele>224.12451171875</ele>
        <time>2012-01-22T10:15:28Z</time>
      </trkpt>
      <trkpt lat="43.22247" lon="5.6161">
        <ele>226.04711914062</ele>
        <time>2012-01-22T10:15:35Z</time>
      </trkpt>
      <trkpt lat="43.22249" lon="5.61585">
        <ele>227.48913574219</ele>
        <time>2012-01-22T10:15:47Z</time>
      </trkpt>
      <trkpt lat="43.2226" lon="5.6157">
        <ele>228.45043945312</ele>
        <time>2012-01-22T10:16:04Z</time>
      </trkpt>
      <trkpt lat="43.2226" lon="5.61571">
        <ele>228.93115234375</ele>
        <time>2012-01-22T10:16:38Z</time>
      </trkpt>
      <trkpt lat="43.2226" lon="5.61571">
        <ele>229.41174316406</ele>
        <time>2012-01-22T10:16:45Z</time>
      </trkpt>
      <trkpt lat="43.22268" lon="5.6157">
        <ele>228.45043945312</ele>
        <time>2012-01-22T10:17:45Z</time>
      </trkpt>
      <trkpt lat="43.22274" lon="5.61567">
        <ele>230.373046875</ele>
        <time>2012-01-22T10:17:50Z</time>
      </trkpt>
      <trkpt lat="43.2229" lon="5.61564">
        <ele>230.85375976562</ele>
        <time>2012-01-22T10:18:02Z</time>
      </trkpt>
      <trkpt lat="43.22296" lon="5.61562">
        <ele>232.29577636719</ele>
        <time>2012-01-22T10:18:06Z</time>
      </trkpt>
      <trkpt lat="43.22305" lon="5.61558">
        <ele>235.1796875</ele>
        <time>2012-01-22T10:18:13Z</time>
      </trkpt>
      <trkpt lat="43.22321" lon="5.61553">
        <ele>234.69909667969</ele>
        <time>2012-01-22T10:18:25Z</time>
      </trkpt>
      <trkpt lat="43.22324" lon="5.6155">
        <ele>237.58288574219</ele>
        <time>2012-01-22T10:18:28Z</time>
      </trkpt>
      <trkpt lat="43.2233" lon="5.61545">
        <ele>235.1796875</ele>
        <time>2012-01-22T10:18:33Z</time>
      </trkpt>
      <trkpt lat="43.22333" lon="5.61542">
        <ele>236.62170410156</ele>
        <time>2012-01-22T10:18:36Z</time>
      </trkpt>
      <trkpt lat="43.22349" lon="5.61519">
        <ele>239.98620605469</ele>
        <time>2012-01-22T10:18:52Z</time>
      </trkpt>
      <trkpt lat="43.22351" lon="5.61513">
        <ele>238.54431152344</ele>
        <time>2012-01-22T10:18:55Z</time>
      </trkpt>
      <trkpt lat="43.22353" lon="5.6151">
        <ele>239.98620605469</ele>
        <time>2012-01-22T10:18:57Z</time>
      </trkpt>
      <trkpt lat="43.22363" lon="5.61495">
        <ele>243.35083007812</ele>
        <time>2012-01-22T10:19:08Z</time>
      </trkpt>
      <trkpt lat="43.22371" lon="5.6148">
        <ele>244.79284667969</ele>
        <time>2012-01-22T10:19:18Z</time>
      </trkpt>
      <trkpt lat="43.2238" lon="5.61457">
        <ele>247.19604492188</ele>
        <time>2012-01-22T10:19:32Z</time>
      </trkpt>
      <trkpt lat="43.2238" lon="5.61455">
        <ele>246.23486328125</ele>
        <time>2012-01-22T10:19:47Z</time>
      </trkpt>
      <trkpt lat="43.22381" lon="5.61455">
        <ele>247.19604492188</ele>
        <time>2012-01-22T10:20:36Z</time>
      </trkpt>
      <trkpt lat="43.22382" lon="5.61452">
        <ele>246.23486328125</ele>
        <time>2012-01-22T10:20:38Z</time>
      </trkpt>
      <trkpt lat="43.22384" lon="5.61446">
        <ele>247.19604492188</ele>
        <time>2012-01-22T10:20:41Z</time>
      </trkpt>
      <trkpt lat="43.22386" lon="5.61424">
        <ele>249.11877441406</ele>
        <time>2012-01-22T10:20:52Z</time>
      </trkpt>
      <trkpt lat="43.22389" lon="5.61397">
        <ele>252.00280761719</ele>
        <time>2012-01-22T10:21:07Z</time>
      </trkpt>
      <trkpt lat="43.22386" lon="5.61357">
        <ele>254.40600585938</ele>
        <time>2012-01-22T10:21:29Z</time>
      </trkpt>
      <trkpt lat="43.22382" lon="5.61336">
        <ele>257.77075195312</ele>
        <time>2012-01-22T10:21:41Z</time>
      </trkpt>
      <trkpt lat="43.22374" lon="5.61315">
        <ele>259.693359375</ele>
        <time>2012-01-22T10:21:52Z</time>
      </trkpt>
      <trkpt lat="43.22352" lon="5.61291">
        <ele>263.05786132812</ele>
        <time>2012-01-22T10:22:12Z</time>
      </trkpt>
      <trkpt lat="43.2234" lon="5.61287">
        <ele>265.94189453125</ele>
        <time>2012-01-22T10:22:20Z</time>
      </trkpt>
      <trkpt lat="43.22339" lon="5.61286">
        <ele>265.94189453125</ele>
        <time>2012-01-22T10:22:21Z</time>
      </trkpt>
      <trkpt lat="43.22328" lon="5.61284">
        <ele>267.38391113281</ele>
        <time>2012-01-22T10:22:29Z</time>
      </trkpt>
      <trkpt lat="43.22295" lon="5.61272">
        <ele>268.34509277344</ele>
        <time>2012-01-22T10:22:52Z</time>
      </trkpt>
      <trkpt lat="43.22277" lon="5.61251">
        <ele>268.82580566406</ele>
        <time>2012-01-22T10:23:10Z</time>
      </trkpt>
      <trkpt lat="43.22277" lon="5.61246">
        <ele>268.82580566406</ele>
        <time>2012-01-22T10:23:13Z</time>
      </trkpt>
      <trkpt lat="43.22272" lon="5.61252">
        <ele>269.30651855469</ele>
        <time>2012-01-22T10:23:24Z</time>
      </trkpt>
      <trkpt lat="43.22272" lon="5.61252">
        <ele>269.787109375</ele>
        <time>2012-01-22T10:25:12Z</time>
      </trkpt>
      <trkpt lat="43.22272" lon="5.61252">
        <ele>270.26770019531</ele>
        <time>2012-01-22T10:25:20Z</time>
      </trkpt>
      <trkpt lat="43.22273" lon="5.61253">
        <ele>268.34509277344</ele>
        <time>2012-01-22T10:25:27Z</time>
      </trkpt>
      <trkpt lat="43.22277" lon="5.6125">
        <ele>270.26770019531</ele>
        <time>2012-01-22T10:25:31Z</time>
      </trkpt>
      <trkpt lat="43.2228" lon="5.61243">
        <ele>269.30651855469</ele>
        <time>2012-01-22T10:25:35Z</time>
      </trkpt>
      <trkpt lat="43.22299" lon="5.61244">
        <ele>274.11303710938</ele>
        <time>2012-01-22T10:25:50Z</time>
      </trkpt>
      <trkpt lat="43.22308" lon="5.61246">
        <ele>274.59375</ele>
        <time>2012-01-22T10:25:57Z</time>
      </trkpt>
      <trkpt lat="43.22312" lon="5.61248">
        <ele>274.59375</ele>
        <time>2012-01-22T10:26:00Z</time>
      </trkpt>
      <trkpt lat="43.22324" lon="5.61245">
        <ele>275.55505371094</ele>
        <time>2012-01-22T10:26:09Z</time>
      </trkpt>
      <trkpt lat="43.22349" lon="5.61241">
        <ele>279.40026855469</ele>
        <time>2012-01-22T10:26:28Z</time>
      </trkpt>
      <trkpt lat="43.22367" lon="5.61239">
        <ele>279.880859375</ele>
        <time>2012-01-22T10:26:41Z</time>
      </trkpt>
      <trkpt lat="43.22388" lon="5.6124">
        <ele>282.76501464844</ele>
        <time>2012-01-22T10:26:56Z</time>
      </trkpt>
      <trkpt lat="43.22407" lon="5.61248">
        <ele>284.68762207031</ele>
        <time>2012-01-22T10:27:12Z</time>
      </trkpt>
      <trkpt lat="43.22415" lon="5.61254">
        <ele>287.0908203125</ele>
        <time>2012-01-22T10:27:20Z</time>
      </trkpt>
      <trkpt lat="43.22419" lon="5.61257">
        <ele>288.53295898438</ele>
        <time>2012-01-22T10:27:24Z</time>
      </trkpt>
      <trkpt lat="43.22422" lon="5.61259">
        <ele>288.53295898438</ele>
        <time>2012-01-22T10:27:27Z</time>
      </trkpt>
      <trkpt lat="43.22445" lon="5.61277">
        <ele>291.8974609375</ele>
        <time>2012-01-22T10:27:49Z</time>
      </trkpt>
      <trkpt lat="43.22474" lon="5.61301">
        <ele>291.41674804688</ele>
        <time>2012-01-22T10:28:14Z</time>
      </trkpt>
      <trkpt lat="43.22501" lon="5.61323">
        <ele>289.01354980469</ele>
        <time>2012-01-22T10:28:26Z</time>
      </trkpt>
      <trkpt lat="43.22522" lon="5.61336">
        <ele>288.05224609375</ele>
        <time>2012-01-22T10:28:33Z</time>
      </trkpt>
      <trkpt lat="43.22554" lon="5.61348">
        <ele>284.20690917969</ele>
        <time>2012-01-22T10:28:41Z</time>
      </trkpt>
      <trkpt lat="43.22559" lon="5.61349">
        <ele>284.20690917969</ele>
        <time>2012-01-22T10:28:42Z</time>
      </trkpt>
      <trkpt lat="43.22572" lon="5.6135">
        <ele>281.80358886719</ele>
        <time>2012-01-22T10:28:44Z</time>
      </trkpt>
      <trkpt lat="43.2259" lon="5.61346">
        <ele>278.91967773438</ele>
        <time>2012-01-22T10:28:47Z</time>
      </trkpt>
      <trkpt lat="43.22601" lon="5.61339">
        <ele>279.40026855469</ele>
        <time>2012-01-22T10:28:49Z</time>
      </trkpt>
      <trkpt lat="43.22625" lon="5.61324">
        <ele>282.28430175781</ele>
        <time>2012-01-22T10:28:54Z</time>
      </trkpt>
      <trkpt lat="43.22633" lon="5.61318">
        <ele>283.72619628906</ele>
        <time>2012-01-22T10:28:57Z</time>
      </trkpt>
      <trkpt lat="43.22647" lon="5.61305">
        <ele>287.0908203125</ele>
        <time>2012-01-22T10:29:08Z</time>
      </trkpt>
      <trkpt lat="43.22655" lon="5.61296">
        <ele>286.12951660156</ele>
        <time>2012-01-22T10:29:16Z</time>
      </trkpt>
      <trkpt lat="43.22677" lon="5.61272">
        <ele>289.494140625</ele>
        <time>2012-01-22T10:29:37Z</time>
      </trkpt>
      <trkpt lat="43.22678" lon="5.61271">
        <ele>289.494140625</ele>
        <time>2012-01-22T10:29:38Z</time>
      </trkpt>
      <trkpt lat="43.22682" lon="5.61269">
        <ele>287.57141113281</ele>
        <time>2012-01-22T10:29:41Z</time>
      </trkpt>
      <trkpt lat="43.22689" lon="5.61265">
        <ele>290.45556640625</ele>
        <time>2012-01-22T10:29:47Z</time>
      </trkpt>
      <trkpt lat="43.22706" lon="5.61258">
        <ele>293.82006835938</ele>
        <time>2012-01-22T10:30:00Z</time>
      </trkpt>
      <trkpt lat="43.22711" lon="5.61258">
        <ele>292.37817382812</ele>
        <time>2012-01-22T10:30:03Z</time>
      </trkpt>
      <trkpt lat="43.22736" lon="5.61266">
        <ele>297.18469238281</ele>
        <time>2012-01-22T10:30:23Z</time>
      </trkpt>
      <trkpt lat="43.22737" lon="5.61267">
        <ele>295.74267578125</ele>
        <time>2012-01-22T10:30:24Z</time>
      </trkpt>
      <trkpt lat="43.22744" lon="5.61271">
        <ele>295.26196289062</ele>
        <time>2012-01-22T10:30:30Z</time>
      </trkpt>
      <trkpt lat="43.2275" lon="5.61277">
        <ele>297.18469238281</ele>
        <time>2012-01-22T10:30:36Z</time>
      </trkpt>
      <trkpt lat="43.22756" lon="5.61283">
        <ele>293.82006835938</ele>
        <time>2012-01-22T10:30:41Z</time>
      </trkpt>
      <trkpt lat="43.22757" lon="5.61284">
        <ele>293.82006835938</ele>
        <time>2012-01-22T10:30:42Z</time>
      </trkpt>
      <trkpt lat="43.22762" lon="5.61289">
        <ele>296.7041015625</ele>
        <time>2012-01-22T10:30:47Z</time>
      </trkpt>
      <trkpt lat="43.22766" lon="5.61293">
        <ele>299.58801269531</ele>
        <time>2012-01-22T10:30:51Z</time>
      </trkpt>
      <trkpt lat="43.22778" lon="5.61304">
        <ele>302.95251464844</ele>
        <time>2012-01-22T10:31:01Z</time>
      </trkpt>
      <trkpt lat="43.22784" lon="5.6131">
        <ele>299.58801269531</ele>
        <time>2012-01-22T10:31:06Z</time>
      </trkpt>
      <trkpt lat="43.22808" lon="5.61329">
        <ele>301.51062011719</ele>
        <time>2012-01-22T10:31:23Z</time>
      </trkpt>
      <trkpt lat="43.2283" lon="5.61351">
        <ele>304.39465332031</ele>
        <time>2012-01-22T10:31:38Z</time>
      </trkpt>
      <trkpt lat="43.22862" lon="5.6139">
        <ele>305.35595703125</ele>
        <time>2012-01-22T10:31:58Z</time>
      </trkpt>
      <trkpt lat="43.22886" lon="5.61414">
        <ele>305.83666992188</ele>
        <time>2012-01-22T10:32:18Z</time>
      </trkpt>
      <trkpt lat="43.22896" lon="5.61421">
        <ele>309.201171875</ele>
        <time>2012-01-22T10:32:26Z</time>
      </trkpt>
      <trkpt lat="43.22897" lon="5.61422">
        <ele>308.72045898438</ele>
        <time>2012-01-22T10:32:27Z</time>
      </trkpt>
      <trkpt lat="43.22923" lon="5.61425">
        <ele>311.6044921875</ele>
        <time>2012-01-22T10:32:46Z</time>
      </trkpt>
      <trkpt lat="43.22933" lon="5.61424">
        <ele>311.12377929688</ele>
        <time>2012-01-22T10:32:53Z</time>
      </trkpt>
      <trkpt lat="43.22964" lon="5.61424">
        <ele>312.08520507812</ele>
        <time>2012-01-22T10:33:15Z</time>
      </trkpt>
      <trkpt lat="43.22984" lon="5.61428">
        <ele>316.41101074219</ele>
        <time>2012-01-22T10:33:29Z</time>
      </trkpt>
      <trkpt lat="43.23009" lon="5.61458">
        <ele>318.33361816406</ele>
        <time>2012-01-22T10:33:54Z</time>
      </trkpt>
      <trkpt lat="43.2302" lon="5.61496">
        <ele>320.25634765625</ele>
        <time>2012-01-22T10:34:16Z</time>
      </trkpt>
      <trkpt lat="43.23047" lon="5.61518">
        <ele>321.2177734375</ele>
        <time>2012-01-22T10:34:38Z</time>
      </trkpt>
      <trkpt lat="43.23049" lon="5.61517">
        <ele>321.2177734375</ele>
        <time>2012-01-22T10:34:39Z</time>
      </trkpt>
      <trkpt lat="43.23083" lon="5.6149">
        <ele>320.73706054688</ele>
        <time>2012-01-22T10:34:58Z</time>
      </trkpt>
      <trkpt lat="43.2309" lon="5.61486">
        <ele>321.69836425781</ele>
        <time>2012-01-22T10:35:01Z</time>
      </trkpt>
      <trkpt lat="43.23097" lon="5.61483">
        <ele>320.73706054688</ele>
        <time>2012-01-22T10:35:04Z</time>
      </trkpt>
      <trkpt lat="43.23134" lon="5.6147">
        <ele>323.14038085938</ele>
        <time>2012-01-22T10:35:21Z</time>
      </trkpt>
      <trkpt lat="43.23164" lon="5.61461">
        <ele>323.62097167969</ele>
        <time>2012-01-22T10:35:38Z</time>
      </trkpt>
      <trkpt lat="43.23173" lon="5.61457">
        <ele>327.46618652344</ele>
        <time>2012-01-22T10:35:43Z</time>
      </trkpt>
      <trkpt lat="43.23181" lon="5.61452">
        <ele>324.1015625</ele>
        <time>2012-01-22T10:35:48Z</time>
      </trkpt>
      <trkpt lat="43.23185" lon="5.61448">
        <ele>325.54357910156</ele>
        <time>2012-01-22T10:35:51Z</time>
      </trkpt>
      <trkpt lat="43.23228" lon="5.61421">
        <ele>326.5048828125</ele>
        <time>2012-01-22T10:36:13Z</time>
      </trkpt>
      <trkpt lat="43.2323" lon="5.6142">
        <ele>326.98559570312</ele>
        <time>2012-01-22T10:36:14Z</time>
      </trkpt>
      <trkpt lat="43.2327" lon="5.61404">
        <ele>328.90832519531</ele>
        <time>2012-01-22T10:36:34Z</time>
      </trkpt>
      <trkpt lat="43.23302" lon="5.61396">
        <ele>332.27282714844</ele>
        <time>2012-01-22T10:36:50Z</time>
      </trkpt>
      <trkpt lat="43.23333" lon="5.61397">
        <ele>331.79211425781</ele>
        <time>2012-01-22T10:37:10Z</time>
      </trkpt>
      <trkpt lat="43.2335" lon="5.61405">
        <ele>335.15673828125</ele>
        <time>2012-01-22T10:37:23Z</time>
      </trkpt>
      <trkpt lat="43.23356" lon="5.6141">
        <ele>337.07946777344</ele>
        <time>2012-01-22T10:37:28Z</time>
      </trkpt>
      <trkpt lat="43.23372" lon="5.61416">
        <ele>337.56005859375</ele>
        <time>2012-01-22T10:37:39Z</time>
      </trkpt>
      <trkpt lat="43.23389" lon="5.61421">
        <ele>339.48266601562</ele>
        <time>2012-01-22T10:37:51Z</time>
      </trkpt>
      <trkpt lat="43.23421" lon="5.61417">
        <ele>341.88598632812</ele>
        <time>2012-01-22T10:38:13Z</time>
      </trkpt>
      <trkpt lat="43.23437" lon="5.61417">
        <ele>338.04077148438</ele>
        <time>2012-01-22T10:38:24Z</time>
      </trkpt>
      <trkpt lat="43.2344" lon="5.61417">
        <ele>341.4052734375</ele>
        <time>2012-01-22T10:38:26Z</time>
      </trkpt>
      <trkpt lat="43.23448" lon="5.61417">
        <ele>343.80859375</ele>
        <time>2012-01-22T10:38:32Z</time>
      </trkpt>
      <trkpt lat="43.23473" lon="5.61417">
        <ele>343.80859375</ele>
        <time>2012-01-22T10:38:50Z</time>
      </trkpt>
      <trkpt lat="43.23476" lon="5.61417">
        <ele>342.84729003906</ele>
        <time>2012-01-22T10:38:52Z</time>
      </trkpt>
      <trkpt lat="43.23479" lon="5.61417">
        <ele>344.28942871094</ele>
        <time>2012-01-22T10:38:54Z</time>
      </trkpt>
      <trkpt lat="43.23485" lon="5.61416">
        <ele>345.73132324219</ele>
        <time>2012-01-22T10:38:58Z</time>
      </trkpt>
      <trkpt lat="43.23494" lon="5.61413">
        <ele>344.77001953125</ele>
        <time>2012-01-22T10:39:04Z</time>
      </trkpt>
      <trkpt lat="43.23527" lon="5.61408">
        <ele>347.65393066406</ele>
        <time>2012-01-22T10:39:27Z</time>
      </trkpt>
      <trkpt lat="43.23541" lon="5.61409">
        <ele>345.25061035156</ele>
        <time>2012-01-22T10:39:36Z</time>
      </trkpt>
      <trkpt lat="43.23546" lon="5.61409">
        <ele>347.65393066406</ele>
        <time>2012-01-22T10:39:39Z</time>
      </trkpt>
      <trkpt lat="43.23552" lon="5.61409">
        <ele>346.69262695312</ele>
        <time>2012-01-22T10:39:43Z</time>
      </trkpt>
      <trkpt lat="43.23556" lon="5.61408">
        <ele>350.05725097656</ele>
        <time>2012-01-22T10:39:46Z</time>
      </trkpt>
      <trkpt lat="43.23578" lon="5.61407">
        <ele>353.90258789062</ele>
        <time>2012-01-22T10:40:01Z</time>
      </trkpt>
      <trkpt lat="43.23586" lon="5.61404">
        <ele>350.53784179688</ele>
        <time>2012-01-22T10:40:07Z</time>
      </trkpt>
      <trkpt lat="43.23589" lon="5.61403">
        <ele>349.57653808594</ele>
        <time>2012-01-22T10:40:09Z</time>
      </trkpt>
      <trkpt lat="43.23592" lon="5.61403">
        <ele>352.46057128906</ele>
        <time>2012-01-22T10:40:11Z</time>
      </trkpt>
      <trkpt lat="43.23598" lon="5.61402">
        <ele>349.57653808594</ele>
        <time>2012-01-22T10:40:17Z</time>
      </trkpt>
      <trkpt lat="43.23599" lon="5.61402">
        <ele>352.46057128906</ele>
        <time>2012-01-22T10:40:24Z</time>
      </trkpt>
      <trkpt lat="43.23599" lon="5.61403">
        <ele>352.46057128906</ele>
        <time>2012-01-22T10:40:46Z</time>
      </trkpt>
      <trkpt lat="43.23599" lon="5.61403">
        <ele>353.421875</ele>
        <time>2012-01-22T10:41:01Z</time>
      </trkpt>
      <trkpt lat="43.23599" lon="5.61403">
        <ele>352.94116210938</ele>
        <time>2012-01-22T10:41:08Z</time>
      </trkpt>
      <trkpt lat="43.2361" lon="5.61393">
        <ele>351.97985839844</ele>
        <time>2012-01-22T10:41:17Z</time>
      </trkpt>
      <trkpt lat="43.23616" lon="5.61389">
        <ele>355.34448242188</ele>
        <time>2012-01-22T10:41:22Z</time>
      </trkpt>
      <trkpt lat="43.2362" lon="5.61384">
        <ele>353.421875</ele>
        <time>2012-01-22T10:41:26Z</time>
      </trkpt>
      <trkpt lat="43.23625" lon="5.61378">
        <ele>356.30578613281</ele>
        <time>2012-01-22T10:41:31Z</time>
      </trkpt>
      <trkpt lat="43.23633" lon="5.6137">
        <ele>359.67041015625</ele>
        <time>2012-01-22T10:41:38Z</time>
      </trkpt>
      <trkpt lat="43.23645" lon="5.61356">
        <ele>357.26708984375</ele>
        <time>2012-01-22T10:41:50Z</time>
      </trkpt>
      <trkpt lat="43.23655" lon="5.61339">
        <ele>360.63171386719</ele>
        <time>2012-01-22T10:42:02Z</time>
      </trkpt>
      <trkpt lat="43.23658" lon="5.61334">
        <ele>359.67041015625</ele>
        <time>2012-01-22T10:42:05Z</time>
      </trkpt>
      <trkpt lat="43.2366" lon="5.6133">
        <ele>363.03503417969</ele>
        <time>2012-01-22T10:42:08Z</time>
      </trkpt>
      <trkpt lat="43.23663" lon="5.61322">
        <ele>363.99633789062</ele>
        <time>2012-01-22T10:42:29Z</time>
      </trkpt>
      <trkpt lat="43.23663" lon="5.61322">
        <ele>363.51574707031</ele>
        <time>2012-01-22T10:42:49Z</time>
      </trkpt>
      <trkpt lat="43.23671" lon="5.61304">
        <ele>363.99633789062</ele>
        <time>2012-01-22T10:43:35Z</time>
      </trkpt>
      <trkpt lat="43.23676" lon="5.61293">
        <ele>366.39953613281</ele>
        <time>2012-01-22T10:43:41Z</time>
      </trkpt>
      <trkpt lat="43.23685" lon="5.61249">
        <ele>369.28369140625</ele>
        <time>2012-01-22T10:44:06Z</time>
      </trkpt>
      <trkpt lat="43.23686" lon="5.61237">
        <ele>369.76428222656</ele>
        <time>2012-01-22T10:44:12Z</time>
      </trkpt>
      <trkpt lat="43.23692" lon="5.61197">
        <ele>372.64819335938</ele>
        <time>2012-01-22T10:44:33Z</time>
      </trkpt>
      <trkpt lat="43.23694" lon="5.61179">
        <ele>375.05151367188</ele>
        <time>2012-01-22T10:44:43Z</time>
      </trkpt>
      <trkpt lat="43.23697" lon="5.61166">
        <ele>371.68688964844</ele>
        <time>2012-01-22T10:44:50Z</time>
      </trkpt>
      <trkpt lat="43.23703" lon="5.61145">
        <ele>374.09008789062</ele>
        <time>2012-01-22T10:45:01Z</time>
      </trkpt>
      <trkpt lat="43.23708" lon="5.61133">
        <ele>376.01281738281</ele>
        <time>2012-01-22T10:45:09Z</time>
      </trkpt>
      <trkpt lat="43.2372" lon="5.6111">
        <ele>378.89685058594</ele>
        <time>2012-01-22T10:45:23Z</time>
      </trkpt>
      <trkpt lat="43.23725" lon="5.61102">
        <ele>380.33874511719</ele>
        <time>2012-01-22T10:45:28Z</time>
      </trkpt>
      <trkpt lat="43.23727" lon="5.61098">
        <ele>377.93542480469</ele>
        <time>2012-01-22T10:45:31Z</time>
      </trkpt>
      <trkpt lat="43.23739" lon="5.61081">
        <ele>379.85803222656</ele>
        <time>2012-01-22T10:45:43Z</time>
      </trkpt>
      <trkpt lat="43.23742" lon="5.61076">
        <ele>382.74206542969</ele>
        <time>2012-01-22T10:45:46Z</time>
      </trkpt>
      <trkpt lat="43.23746" lon="5.6107">
        <ele>377.93542480469</ele>
        <time>2012-01-22T10:45:51Z</time>
      </trkpt>
      <trkpt lat="43.23749" lon="5.61066">
        <ele>381.30004882812</ele>
        <time>2012-01-22T10:45:54Z</time>
      </trkpt>
      <trkpt lat="43.23759" lon="5.61054">
        <ele>384.18408203125</ele>
        <time>2012-01-22T10:46:03Z</time>
      </trkpt>
      <trkpt lat="43.2376" lon="5.61053">
        <ele>384.66479492188</ele>
        <time>2012-01-22T10:46:04Z</time>
      </trkpt>
      <trkpt lat="43.23788" lon="5.61035">
        <ele>387.54858398438</ele>
        <time>2012-01-22T10:46:25Z</time>
      </trkpt>
      <trkpt lat="43.23792" lon="5.61033">
        <ele>386.10668945312</ele>
        <time>2012-01-22T10:46:28Z</time>
      </trkpt>
      <trkpt lat="43.23804" lon="5.6103">
        <ele>388.99060058594</ele>
        <time>2012-01-22T10:46:36Z</time>
      </trkpt>
      <trkpt lat="43.23819" lon="5.61028">
        <ele>389.95190429688</ele>
        <time>2012-01-22T10:46:46Z</time>
      </trkpt>
      <trkpt lat="43.23826" lon="5.61026">
        <ele>393.79724121094</ele>
        <time>2012-01-22T10:46:51Z</time>
      </trkpt>
      <trkpt lat="43.23828" lon="5.61026">
        <ele>394.75854492188</ele>
        <time>2012-01-22T10:46:53Z</time>
      </trkpt>
      <trkpt lat="43.23832" lon="5.61025">
        <ele>391.87451171875</ele>
        <time>2012-01-22T10:46:56Z</time>
      </trkpt>
      <trkpt lat="43.23853" lon="5.61009">
        <ele>395.23913574219</ele>
        <time>2012-01-22T10:47:12Z</time>
      </trkpt>
      <trkpt lat="43.2387" lon="5.60987">
        <ele>399.56506347656</ele>
        <time>2012-01-22T10:47:30Z</time>
      </trkpt>
      <trkpt lat="43.23875" lon="5.6098">
        <ele>399.56506347656</ele>
        <time>2012-01-22T10:47:49Z</time>
      </trkpt>
      <trkpt lat="43.23875" lon="5.6098">
        <ele>399.08435058594</ele>
        <time>2012-01-22T10:48:14Z</time>
      </trkpt>
      <trkpt lat="43.23875" lon="5.6098">
        <ele>400.0458984375</ele>
        <time>2012-01-22T10:48:33Z</time>
      </trkpt>
      <trkpt lat="43.23875" lon="5.6098">
        <ele>396.68115234375</ele>
        <time>2012-01-22T10:48:42Z</time>
      </trkpt>
      <trkpt lat="43.23875" lon="5.6098">
        <ele>400.52648925781</ele>
        <time>2012-01-22T10:48:44Z</time>
      </trkpt>
      <trkpt lat="43.23875" lon="5.6098">
        <ele>400.52648925781</ele>
        <time>2012-01-22T10:48:45Z</time>
      </trkpt>
      <trkpt lat="43.23875" lon="5.6098">
        <ele>403.89111328125</ele>
        <time>2012-01-22T10:49:21Z</time>
      </trkpt>
      <trkpt lat="43.23876" lon="5.60979">
        <ele>401.00708007812</ele>
        <time>2012-01-22T10:49:23Z</time>
      </trkpt>
      <trkpt lat="43.23879" lon="5.60973">
        <ele>403.41040039062</ele>
        <time>2012-01-22T10:49:28Z</time>
      </trkpt>
      <trkpt lat="43.2389" lon="5.60959">
        <ele>399.08435058594</ele>
        <time>2012-01-22T10:49:39Z</time>
      </trkpt>
      <trkpt lat="43.2389" lon="5.60958">
        <ele>399.08435058594</ele>
        <time>2012-01-22T10:49:40Z</time>
      </trkpt>
      <trkpt lat="43.23893" lon="5.60953">
        <ele>402.44909667969</ele>
        <time>2012-01-22T10:49:43Z</time>
      </trkpt>
      <trkpt lat="43.23894" lon="5.60952">
        <ele>402.44909667969</ele>
        <time>2012-01-22T10:49:44Z</time>
      </trkpt>
      <trkpt lat="43.23898" lon="5.60947">
        <ele>403.41040039062</ele>
        <time>2012-01-22T10:49:48Z</time>
      </trkpt>
      <trkpt lat="43.23903" lon="5.60939">
        <ele>406.77490234375</ele>
        <time>2012-01-22T10:49:54Z</time>
      </trkpt>
      <trkpt lat="43.23904" lon="5.60937">
        <ele>406.77490234375</ele>
        <time>2012-01-22T10:49:55Z</time>
      </trkpt>
      <trkpt lat="43.23921" lon="5.60908">
        <ele>409.65905761719</ele>
        <time>2012-01-22T10:50:16Z</time>
      </trkpt>
      <trkpt lat="43.2393" lon="5.60887">
        <ele>411.10095214844</ele>
        <time>2012-01-22T10:50:30Z</time>
      </trkpt>
      <trkpt lat="43.23936" lon="5.60874">
        <ele>412.54284667969</ele>
        <time>2012-01-22T10:50:39Z</time>
      </trkpt>
      <trkpt lat="43.2394" lon="5.60835">
        <ele>413.98486328125</ele>
        <time>2012-01-22T10:51:00Z</time>
      </trkpt>
      <trkpt lat="43.23923" lon="5.60805">
        <ele>414.46545410156</ele>
        <time>2012-01-22T10:51:13Z</time>
      </trkpt>
      <trkpt lat="43.23915" lon="5.60792">
        <ele>415.90747070312</ele>
        <time>2012-01-22T10:51:18Z</time>
      </trkpt>
      <trkpt lat="43.23906" lon="5.60778">
        <ele>416.38818359375</ele>
        <time>2012-01-22T10:51:23Z</time>
      </trkpt>
      <trkpt lat="43.23881" lon="5.60741">
        <ele>415.90747070312</ele>
        <time>2012-01-22T10:51:39Z</time>
      </trkpt>
      <trkpt lat="43.23864" lon="5.60702">
        <ele>418.31079101562</ele>
        <time>2012-01-22T10:51:51Z</time>
      </trkpt>
      <trkpt lat="43.23834" lon="5.60649">
        <ele>419.75280761719</ele>
        <time>2012-01-22T10:52:08Z</time>
      </trkpt>
      <trkpt lat="43.23816" lon="5.60629">
        <ele>421.19482421875</ele>
        <time>2012-01-22T10:52:19Z</time>
      </trkpt>
      <trkpt lat="43.23812" lon="5.60623">
        <ele>424.55944824219</ele>
        <time>2012-01-22T10:52:22Z</time>
      </trkpt>
      <trkpt lat="43.23811" lon="5.6062">
        <ele>424.55944824219</ele>
        <time>2012-01-22T10:52:23Z</time>
      </trkpt>
      <trkpt lat="43.23809" lon="5.60615">
        <ele>421.67541503906</ele>
        <time>2012-01-22T10:52:25Z</time>
      </trkpt>
      <trkpt lat="43.23808" lon="5.60604">
        <ele>423.59802246094</ele>
        <time>2012-01-22T10:52:30Z</time>
      </trkpt>
      <trkpt lat="43.23802" lon="5.60588">
        <ele>428.88537597656</ele>
        <time>2012-01-22T10:52:37Z</time>
      </trkpt>
      <trkpt lat="43.238" lon="5.60584">
        <ele>425.52075195312</ele>
        <time>2012-01-22T10:52:39Z</time>
      </trkpt>
      <trkpt lat="43.23797" lon="5.6058">
        <ele>425.04016113281</ele>
        <time>2012-01-22T10:52:41Z</time>
      </trkpt>
      <trkpt lat="43.23787" lon="5.60565">
        <ele>428.40466308594</ele>
        <time>2012-01-22T10:52:49Z</time>
      </trkpt>
      <trkpt lat="43.23783" lon="5.60561">
        <ele>426.96276855469</ele>
        <time>2012-01-22T10:52:52Z</time>
      </trkpt>
      <trkpt lat="43.23779" lon="5.60556">
        <ele>425.52075195312</ele>
        <time>2012-01-22T10:52:55Z</time>
      </trkpt>
      <trkpt lat="43.23772" lon="5.60551">
        <ele>429.36596679688</ele>
        <time>2012-01-22T10:52:59Z</time>
      </trkpt>
      <trkpt lat="43.23766" lon="5.60544">
        <ele>427.92395019531</ele>
        <time>2012-01-22T10:53:02Z</time>
      </trkpt>
      <trkpt lat="43.23753" lon="5.60522">
        <ele>424.07873535156</ele>
        <time>2012-01-22T10:53:10Z</time>
      </trkpt>
      <trkpt lat="43.23752" lon="5.60519">
        <ele>424.07873535156</ele>
        <time>2012-01-22T10:53:11Z</time>
      </trkpt>
      <trkpt lat="43.23737" lon="5.60476">
        <ele>423.11743164062</ele>
        <time>2012-01-22T10:53:20Z</time>
      </trkpt>
      <trkpt lat="43.23731" lon="5.60457">
        <ele>424.07873535156</ele>
        <time>2012-01-22T10:53:23Z</time>
      </trkpt>
      <trkpt lat="43.23727" lon="5.60443">
        <ele>430.32727050781</ele>
        <time>2012-01-22T10:53:25Z</time>
      </trkpt>
      <trkpt lat="43.23725" lon="5.60437">
        <ele>427.92395019531</ele>
        <time>2012-01-22T10:53:26Z</time>
      </trkpt>
      <trkpt lat="43.23723" lon="5.60423">
        <ele>421.67541503906</ele>
        <time>2012-01-22T10:53:28Z</time>
      </trkpt>
      <trkpt lat="43.23721" lon="5.60409">
        <ele>417.349609375</ele>
        <time>2012-01-22T10:53:30Z</time>
      </trkpt>
      <trkpt lat="43.2372" lon="5.60402">
        <ele>420.71411132812</ele>
        <time>2012-01-22T10:53:31Z</time>
      </trkpt>
      <trkpt lat="43.23717" lon="5.60385">
        <ele>416.86889648438</ele>
        <time>2012-01-22T10:53:34Z</time>
      </trkpt>
      <trkpt lat="43.2371" lon="5.60352">
        <ele>414.94616699219</ele>
        <time>2012-01-22T10:53:42Z</time>
      </trkpt>
      <trkpt lat="43.23697" lon="5.60313">
        <ele>413.98486328125</ele>
        <time>2012-01-22T10:53:55Z</time>
      </trkpt>
      <trkpt lat="43.23691" lon="5.60306">
        <ele>416.38818359375</ele>
        <time>2012-01-22T10:53:58Z</time>
      </trkpt>
      <trkpt lat="43.23668" lon="5.6028">
        <ele>415.90747070312</ele>
        <time>2012-01-22T10:54:19Z</time>
      </trkpt>
      <trkpt lat="43.23668" lon="5.6028">
        <ele>412.54284667969</ele>
        <time>2012-01-22T10:54:27Z</time>
      </trkpt>
      <trkpt lat="43.23668" lon="5.6028">
        <ele>415.90747070312</ele>
        <time>2012-01-22T10:54:31Z</time>
      </trkpt>
      <trkpt lat="43.23668" lon="5.6028">
        <ele>416.86889648438</ele>
        <time>2012-01-22T10:54:34Z</time>
      </trkpt>
      <trkpt lat="43.23667" lon="5.60277">
        <ele>416.38818359375</ele>
        <time>2012-01-22T10:54:38Z</time>
      </trkpt>
      <trkpt lat="43.23669" lon="5.60267">
        <ele>415.42687988281</ele>
        <time>2012-01-22T10:54:57Z</time>
      </trkpt>
      <trkpt lat="43.23696" lon="5.60217">
        <ele>411.10095214844</ele>
        <time>2012-01-22T10:55:11Z</time>
      </trkpt>
      <trkpt lat="43.23699" lon="5.60211">
        <ele>410.62023925781</ele>
        <time>2012-01-22T10:55:12Z</time>
      </trkpt>
      <trkpt lat="43.2371" lon="5.60196">
        <ele>409.65905761719</ele>
        <time>2012-01-22T10:55:15Z</time>
      </trkpt>
      <trkpt lat="43.23727" lon="5.60171">
        <ele>413.50427246094</ele>
        <time>2012-01-22T10:55:20Z</time>
      </trkpt>
      <trkpt lat="43.2373" lon="5.60166">
        <ele>413.02355957031</ele>
        <time>2012-01-22T10:55:21Z</time>
      </trkpt>
      <trkpt lat="43.23737" lon="5.60148">
        <ele>411.10095214844</ele>
        <time>2012-01-22T10:55:24Z</time>
      </trkpt>
      <trkpt lat="43.23738" lon="5.60141">
        <ele>410.62023925781</ele>
        <time>2012-01-22T10:55:25Z</time>
      </trkpt>
      <trkpt lat="43.23742" lon="5.60121">
        <ele>411.10095214844</ele>
        <time>2012-01-22T10:55:28Z</time>
      </trkpt>
      <trkpt lat="43.23739" lon="5.60075">
        <ele>408.21704101562</ele>
        <time>2012-01-22T10:55:34Z</time>
      </trkpt>
      <trkpt lat="43.23728" lon="5.60051">
        <ele>405.3330078125</ele>
        <time>2012-01-22T10:55:37Z</time>
      </trkpt>
      <trkpt lat="43.23724" lon="5.60045">
        <ele>404.85229492188</ele>
        <time>2012-01-22T10:55:38Z</time>
      </trkpt>
      <trkpt lat="43.2371" lon="5.60009">
        <ele>401.48779296875</ele>
        <time>2012-01-22T10:55:43Z</time>
      </trkpt>
      <trkpt lat="43.23696" lon="5.59955">
        <ele>396.68115234375</ele>
        <time>2012-01-22T10:55:49Z</time>
      </trkpt>
      <trkpt lat="43.2369" lon="5.5993">
        <ele>393.79724121094</ele>
        <time>2012-01-22T10:55:52Z</time>
      </trkpt>
      <trkpt lat="43.23688" lon="5.59912">
        <ele>392.35534667969</ele>
        <time>2012-01-22T10:55:54Z</time>
      </trkpt>
      <trkpt lat="43.23686" lon="5.59903">
        <ele>388.99060058594</ele>
        <time>2012-01-22T10:55:55Z</time>
      </trkpt>
      <trkpt lat="43.23665" lon="5.59866">
        <ele>393.31652832031</ele>
        <time>2012-01-22T10:56:00Z</time>
      </trkpt>
      <trkpt lat="43.23645" lon="5.59845">
        <ele>393.79724121094</ele>
        <time>2012-01-22T10:56:04Z</time>
      </trkpt>
      <trkpt lat="43.23635" lon="5.59831">
        <ele>390.91320800781</ele>
        <time>2012-01-22T10:56:07Z</time>
      </trkpt>
      <trkpt lat="43.23619" lon="5.59794">
        <ele>389.95190429688</ele>
        <time>2012-01-22T10:56:15Z</time>
      </trkpt>
      <trkpt lat="43.23611" lon="5.59743">
        <ele>390.4326171875</ele>
        <time>2012-01-22T10:56:24Z</time>
      </trkpt>
      <trkpt lat="43.23608" lon="5.59671">
        <ele>390.4326171875</ele>
        <time>2012-01-22T10:56:42Z</time>
      </trkpt>
      <trkpt lat="43.2361" lon="5.59622">
        <ele>388.51000976562</ele>
        <time>2012-01-22T10:56:53Z</time>
      </trkpt>
      <trkpt lat="43.2361" lon="5.59613">
        <ele>391.87451171875</ele>
        <time>2012-01-22T10:56:55Z</time>
      </trkpt>
      <trkpt lat="43.2361" lon="5.59609">
        <ele>390.91320800781</ele>
        <time>2012-01-22T10:56:56Z</time>
      </trkpt>
      <trkpt lat="43.23618" lon="5.59553">
        <ele>392.35534667969</ele>
        <time>2012-01-22T10:57:10Z</time>
      </trkpt>
      <trkpt lat="43.23626" lon="5.59503">
        <ele>389.47119140625</ele>
        <time>2012-01-22T10:57:24Z</time>
      </trkpt>
      <trkpt lat="43.23632" lon="5.59448">
        <ele>389.47119140625</ele>
        <time>2012-01-22T10:57:35Z</time>
      </trkpt>
      <trkpt lat="43.23637" lon="5.59419">
        <ele>387.06799316406</ele>
        <time>2012-01-22T10:57:41Z</time>
      </trkpt>
      <trkpt lat="43.2363" lon="5.59396">
        <ele>385.14538574219</ele>
        <time>2012-01-22T10:57:50Z</time>
      </trkpt>
      <trkpt lat="43.23627" lon="5.59402">
        <ele>384.66479492188</ele>
        <time>2012-01-22T10:57:52Z</time>
      </trkpt>
      <trkpt lat="43.23619" lon="5.5942">
        <ele>386.10668945312</ele>
        <time>2012-01-22T10:57:59Z</time>
      </trkpt>
      <trkpt lat="43.23605" lon="5.59461">
        <ele>385.14538574219</ele>
        <time>2012-01-22T10:58:14Z</time>
      </trkpt>
      <trkpt lat="43.23596" lon="5.5948">
        <ele>386.58740234375</ele>
        <time>2012-01-22T10:58:21Z</time>
      </trkpt>
      <trkpt lat="43.23571" lon="5.59525">
        <ele>385.6259765625</ele>
        <time>2012-01-22T10:58:37Z</time>
      </trkpt>
      <trkpt lat="43.23571" lon="5.59528">
        <ele>384.18408203125</ele>
        <time>2012-01-22T10:58:50Z</time>
      </trkpt>
      <trkpt lat="43.23571" lon="5.59528">
        <ele>385.14538574219</ele>
        <time>2012-01-22T10:59:00Z</time>
      </trkpt>
      <trkpt lat="43.23571" lon="5.59531">
        <ele>384.66479492188</ele>
        <time>2012-01-22T10:59:15Z</time>
      </trkpt>
      <trkpt lat="43.2357" lon="5.59532">
        <ele>383.22265625</ele>
        <time>2012-01-22T10:59:18Z</time>
      </trkpt>
      <trkpt lat="43.2357" lon="5.59535">
        <ele>384.66479492188</ele>
        <time>2012-01-22T10:59:22Z</time>
      </trkpt>
      <trkpt lat="43.23566" lon="5.59564">
        <ele>381.30004882812</ele>
        <time>2012-01-22T10:59:30Z</time>
      </trkpt>
      <trkpt lat="43.23564" lon="5.59577">
        <ele>380.33874511719</ele>
        <time>2012-01-22T10:59:32Z</time>
      </trkpt>
      <trkpt lat="43.23562" lon="5.5959">
        <ele>379.85803222656</ele>
        <time>2012-01-22T10:59:34Z</time>
      </trkpt>
      <trkpt lat="43.23549" lon="5.59618">
        <ele>374.57080078125</ele>
        <time>2012-01-22T10:59:39Z</time>
      </trkpt>
      <trkpt lat="43.23544" lon="5.59622">
        <ele>373.60949707031</ele>
        <time>2012-01-22T10:59:40Z</time>
      </trkpt>
      <trkpt lat="43.23525" lon="5.59648">
        <ele>370.24487304688</ele>
        <time>2012-01-22T10:59:45Z</time>
      </trkpt>
      <trkpt lat="43.23521" lon="5.59653">
        <ele>369.76428222656</ele>
        <time>2012-01-22T10:59:46Z</time>
      </trkpt>
      <trkpt lat="43.235" lon="5.59675">
        <ele>365.9189453125</ele>
        <time>2012-01-22T10:59:50Z</time>
      </trkpt>
      <trkpt lat="43.23452" lon="5.59717">
        <ele>364.47692871094</ele>
        <time>2012-01-22T10:59:59Z</time>
      </trkpt>
      <trkpt lat="43.23437" lon="5.5974">
        <ele>363.99633789062</ele>
        <time>2012-01-22T11:00:03Z</time>
      </trkpt>
      <trkpt lat="43.23435" lon="5.59748">
        <ele>364.95764160156</ele>
        <time>2012-01-22T11:00:05Z</time>
      </trkpt>
      <trkpt lat="43.23436" lon="5.59761">
        <ele>364.95764160156</ele>
        <time>2012-01-22T11:00:10Z</time>
      </trkpt>
      <trkpt lat="43.23429" lon="5.59782">
        <ele>361.11242675781</ele>
        <time>2012-01-22T11:00:15Z</time>
      </trkpt>
      <trkpt lat="43.23421" lon="5.59796">
        <ele>358.708984375</ele>
        <time>2012-01-22T11:00:19Z</time>
      </trkpt>
      <trkpt lat="43.23409" lon="5.5981">
        <ele>354.86376953125</ele>
        <time>2012-01-22T11:00:24Z</time>
      </trkpt>
      <trkpt lat="43.23403" lon="5.59818">
        <ele>352.46057128906</ele>
        <time>2012-01-22T11:00:27Z</time>
      </trkpt>
      <trkpt lat="43.23388" lon="5.59829">
        <ele>348.615234375</ele>
        <time>2012-01-22T11:00:33Z</time>
      </trkpt>
      <trkpt lat="43.23388" lon="5.59834">
        <ele>349.09582519531</ele>
        <time>2012-01-22T11:00:43Z</time>
      </trkpt>
      <trkpt lat="43.23389" lon="5.59834">
        <ele>349.09582519531</ele>
        <time>2012-01-22T11:00:45Z</time>
      </trkpt>
      <trkpt lat="43.23398" lon="5.59838">
        <ele>345.73132324219</ele>
        <time>2012-01-22T11:00:50Z</time>
      </trkpt>
      <trkpt lat="43.23413" lon="5.59843">
        <ele>342.36669921875</ele>
        <time>2012-01-22T11:00:55Z</time>
      </trkpt>
      <trkpt lat="43.23438" lon="5.59852">
        <ele>339.00207519531</ele>
        <time>2012-01-22T11:01:02Z</time>
      </trkpt>
      <trkpt lat="43.23432" lon="5.5986">
        <ele>335.63732910156</ele>
        <time>2012-01-22T11:01:08Z</time>
      </trkpt>
      <trkpt lat="43.23411" lon="5.59872">
        <ele>332.27282714844</ele>
        <time>2012-01-22T11:01:15Z</time>
      </trkpt>
      <trkpt lat="43.23402" lon="5.59876">
        <ele>330.83093261719</ele>
        <time>2012-01-22T11:01:18Z</time>
      </trkpt>
      <trkpt lat="43.23383" lon="5.59887">
        <ele>327.94677734375</ele>
        <time>2012-01-22T11:01:27Z</time>
      </trkpt>
      <trkpt lat="43.23374" lon="5.59898">
        <ele>324.58227539062</ele>
        <time>2012-01-22T11:01:31Z</time>
      </trkpt>
      <trkpt lat="43.2337" lon="5.59907">
        <ele>323.14038085938</ele>
        <time>2012-01-22T11:01:34Z</time>
      </trkpt>
      <trkpt lat="43.23367" lon="5.5991">
        <ele>322.65966796875</ele>
        <time>2012-01-22T11:01:35Z</time>
      </trkpt>
      <trkpt lat="43.23353" lon="5.59925">
        <ele>319.29504394531</ele>
        <time>2012-01-22T11:01:39Z</time>
      </trkpt>
      <trkpt lat="43.23344" lon="5.59935">
        <ele>317.85302734375</ele>
        <time>2012-01-22T11:01:42Z</time>
      </trkpt>
      <trkpt lat="43.23331" lon="5.59951">
        <ele>314.96911621094</ele>
        <time>2012-01-22T11:01:47Z</time>
      </trkpt>
      <trkpt lat="43.23325" lon="5.59957">
        <ele>313.52722167969</ele>
        <time>2012-01-22T11:01:49Z</time>
      </trkpt>
      <trkpt lat="43.23321" lon="5.59959">
        <ele>313.52722167969</ele>
        <time>2012-01-22T11:01:51Z</time>
      </trkpt>
      <trkpt lat="43.23305" lon="5.59983">
        <ele>309.201171875</ele>
        <time>2012-01-22T11:01:58Z</time>
      </trkpt>
      <trkpt lat="43.23291" lon="5.59996">
        <ele>305.83666992188</ele>
        <time>2012-01-22T11:02:02Z</time>
      </trkpt>
      <trkpt lat="43.23287" lon="5.59999">
        <ele>304.39465332031</ele>
        <time>2012-01-22T11:02:03Z</time>
      </trkpt>
      <trkpt lat="43.23263" lon="5.60015">
        <ele>301.99133300781</ele>
        <time>2012-01-22T11:02:09Z</time>
      </trkpt>
      <trkpt lat="43.23253" lon="5.60023">
        <ele>300.54931640625</ele>
        <time>2012-01-22T11:02:12Z</time>
      </trkpt>
      <trkpt lat="43.23224" lon="5.60023">
        <ele>297.18469238281</ele>
        <time>2012-01-22T11:02:19Z</time>
      </trkpt>
      <trkpt lat="43.23211" lon="5.60016">
        <ele>297.18469238281</ele>
        <time>2012-01-22T11:02:22Z</time>
      </trkpt>
      <trkpt lat="43.23175" lon="5.60012">
        <ele>293.33935546875</ele>
        <time>2012-01-22T11:02:29Z</time>
      </trkpt>
      <trkpt lat="43.23169" lon="5.60011">
        <ele>293.33935546875</ele>
        <time>2012-01-22T11:02:30Z</time>
      </trkpt>
      <trkpt lat="43.23142" lon="5.60013">
        <ele>292.85876464844</ele>
        <time>2012-01-22T11:02:35Z</time>
      </trkpt>
      <trkpt lat="43.23128" lon="5.60016">
        <ele>291.41674804688</ele>
        <time>2012-01-22T11:02:38Z</time>
      </trkpt>
      <trkpt lat="43.23101" lon="5.6002">
        <ele>288.53295898438</ele>
        <time>2012-01-22T11:02:43Z</time>
      </trkpt>
      <trkpt lat="43.23072" lon="5.60026">
        <ele>288.05224609375</ele>
        <time>2012-01-22T11:02:50Z</time>
      </trkpt>
      <trkpt lat="43.23049" lon="5.60028">
        <ele>286.12951660156</ele>
        <time>2012-01-22T11:02:56Z</time>
      </trkpt>
      <trkpt lat="43.23041" lon="5.60024">
        <ele>284.68762207031</ele>
        <time>2012-01-22T11:02:58Z</time>
      </trkpt>
      <trkpt lat="43.23027" lon="5.59986">
        <ele>282.76501464844</ele>
        <time>2012-01-22T11:03:06Z</time>
      </trkpt>
      <trkpt lat="43.23009" lon="5.59987">
        <ele>279.880859375</ele>
        <time>2012-01-22T11:03:11Z</time>
      </trkpt>
      <trkpt lat="43.2299" lon="5.59993">
        <ele>278.91967773438</ele>
        <time>2012-01-22T11:03:16Z</time>
      </trkpt>
      <trkpt lat="43.22961" lon="5.60005">
        <ele>275.07446289062</ele>
        <time>2012-01-22T11:03:22Z</time>
      </trkpt>
      <trkpt lat="43.22936" lon="5.60013">
        <ele>273.15185546875</ele>
        <time>2012-01-22T11:03:27Z</time>
      </trkpt>
      <trkpt lat="43.22901" lon="5.60035">
        <ele>270.26770019531</ele>
        <time>2012-01-22T11:03:37Z</time>
      </trkpt>
      <trkpt lat="43.22891" lon="5.6004">
        <ele>268.34509277344</ele>
        <time>2012-01-22T11:03:40Z</time>
      </trkpt>
      <trkpt lat="43.22882" lon="5.60045">
        <ele>267.38391113281</ele>
        <time>2012-01-22T11:03:42Z</time>
      </trkpt>
      <trkpt lat="43.22868" lon="5.60055">
        <ele>265.46130371094</ele>
        <time>2012-01-22T11:03:45Z</time>
      </trkpt>
      <trkpt lat="43.22855" lon="5.60063">
        <ele>264.49987792969</ele>
        <time>2012-01-22T11:03:49Z</time>
      </trkpt>
      <trkpt lat="43.22836" lon="5.60078">
        <ele>262.09655761719</ele>
        <time>2012-01-22T11:03:54Z</time>
      </trkpt>
      <trkpt lat="43.22812" lon="5.60095">
        <ele>260.17395019531</ele>
        <time>2012-01-22T11:03:59Z</time>
      </trkpt>
      <trkpt lat="43.22786" lon="5.60109">
        <ele>257.2900390625</ele>
        <time>2012-01-22T11:04:06Z</time>
      </trkpt>
      <trkpt lat="43.22758" lon="5.60125">
        <ele>253.92541503906</ele>
        <time>2012-01-22T11:04:13Z</time>
      </trkpt>
      <trkpt lat="43.2275" lon="5.60129">
        <ele>253.44470214844</ele>
        <time>2012-01-22T11:04:15Z</time>
      </trkpt>
      <trkpt lat="43.22724" lon="5.6015">
        <ele>249.11877441406</ele>
        <time>2012-01-22T11:04:23Z</time>
      </trkpt>
      <trkpt lat="43.22716" lon="5.60152">
        <ele>247.6767578125</ele>
        <time>2012-01-22T11:04:25Z</time>
      </trkpt>
      <trkpt lat="43.227" lon="5.60157">
        <ele>244.31225585938</ele>
        <time>2012-01-22T11:04:30Z</time>
      </trkpt>
      <trkpt lat="43.2269" lon="5.60166">
        <ele>240.94763183594</ele>
        <time>2012-01-22T11:04:34Z</time>
      </trkpt>
      <trkpt lat="43.22681" lon="5.60169">
        <ele>239.02490234375</ele>
        <time>2012-01-22T11:04:37Z</time>
      </trkpt>
      <trkpt lat="43.22673" lon="5.60178">
        <ele>237.10229492188</ele>
        <time>2012-01-22T11:04:41Z</time>
      </trkpt>
      <trkpt lat="43.2266" lon="5.60187">
        <ele>233.25708007812</ele>
        <time>2012-01-22T11:04:46Z</time>
      </trkpt>
      <trkpt lat="43.22656" lon="5.60189">
        <ele>232.29577636719</ele>
        <time>2012-01-22T11:04:47Z</time>
      </trkpt>
      <trkpt lat="43.22648" lon="5.60203">
        <ele>230.373046875</ele>
        <time>2012-01-22T11:04:51Z</time>
      </trkpt>
      <trkpt lat="43.22637" lon="5.60213">
        <ele>228.45043945312</ele>
        <time>2012-01-22T11:04:55Z</time>
      </trkpt>
      <trkpt lat="43.22632" lon="5.60215">
        <ele>227.48913574219</ele>
        <time>2012-01-22T11:04:57Z</time>
      </trkpt>
      <trkpt lat="43.2262" lon="5.60218">
        <ele>224.12451171875</ele>
        <time>2012-01-22T11:05:01Z</time>
      </trkpt>
      <trkpt lat="43.22604" lon="5.60232">
        <ele>220.27917480469</ele>
        <time>2012-01-22T11:05:08Z</time>
      </trkpt>
      <trkpt lat="43.22588" lon="5.60243">
        <ele>216.91467285156</ele>
        <time>2012-01-22T11:05:12Z</time>
      </trkpt>
      <trkpt lat="43.22577" lon="5.60252">
        <ele>214.99194335938</ele>
        <time>2012-01-22T11:05:15Z</time>
      </trkpt>
      <trkpt lat="43.22547" lon="5.60263">
        <ele>211.62744140625</ele>
        <time>2012-01-22T11:05:23Z</time>
      </trkpt>
      <trkpt lat="43.22538" lon="5.60274">
        <ele>208.74340820312</ele>
        <time>2012-01-22T11:05:26Z</time>
      </trkpt>
      <trkpt lat="43.22531" lon="5.60279">
        <ele>206.82067871094</ele>
        <time>2012-01-22T11:05:28Z</time>
      </trkpt>
      <trkpt lat="43.22518" lon="5.60285">
        <ele>204.41748046875</ele>
        <time>2012-01-22T11:05:31Z</time>
      </trkpt>
      <trkpt lat="43.22506" lon="5.60284">
        <ele>202.97546386719</ele>
        <time>2012-01-22T11:05:34Z</time>
      </trkpt>
      <trkpt lat="43.2249" lon="5.6028">
        <ele>199.61083984375</ele>
        <time>2012-01-22T11:05:40Z</time>
      </trkpt>
      <trkpt lat="43.22476" lon="5.60281">
        <ele>196.24633789062</ele>
        <time>2012-01-22T11:05:45Z</time>
      </trkpt>
      <trkpt lat="43.2246" lon="5.60281">
        <ele>192.88171386719</ele>
        <time>2012-01-22T11:05:51Z</time>
      </trkpt>
      <trkpt lat="43.22443" lon="5.60286">
        <ele>189.51696777344</ele>
        <time>2012-01-22T11:05:56Z</time>
      </trkpt>
      <trkpt lat="43.22421" lon="5.60284">
        <ele>185.67175292969</ele>
        <time>2012-01-22T11:06:02Z</time>
      </trkpt>
      <trkpt lat="43.22409" lon="5.60291">
        <ele>182.78784179688</ele>
        <time>2012-01-22T11:06:06Z</time>
      </trkpt>
      <trkpt lat="43.22399" lon="5.60289">
        <ele>181.34582519531</ele>
        <time>2012-01-22T11:06:09Z</time>
      </trkpt>
      <trkpt lat="43.22385" lon="5.6027">
        <ele>177.98120117188</ele>
        <time>2012-01-22T11:06:15Z</time>
      </trkpt>
      <trkpt lat="43.22369" lon="5.60259">
        <ele>175.09729003906</ele>
        <time>2012-01-22T11:06:20Z</time>
      </trkpt>
      <trkpt lat="43.22339" lon="5.60241">
        <ele>172.69396972656</ele>
        <time>2012-01-22T11:06:32Z</time>
      </trkpt>
      <trkpt lat="43.22321" lon="5.60236">
        <ele>169.32946777344</ele>
        <time>2012-01-22T11:06:36Z</time>
      </trkpt>
      <trkpt lat="43.22308" lon="5.60236">
        <ele>167.88732910156</ele>
        <time>2012-01-22T11:06:39Z</time>
      </trkpt>
      <trkpt lat="43.2229" lon="5.60254">
        <ele>165.48413085938</ele>
        <time>2012-01-22T11:06:44Z</time>
      </trkpt>
      <trkpt lat="43.22275" lon="5.60276">
        <ele>162.60009765625</ele>
        <time>2012-01-22T11:06:49Z</time>
      </trkpt>
      <trkpt lat="43.22271" lon="5.60279">
        <ele>162.60009765625</ele>
        <time>2012-01-22T11:06:50Z</time>
      </trkpt>
      <trkpt lat="43.22261" lon="5.60281">
        <ele>162.60009765625</ele>
        <time>2012-01-22T11:06:53Z</time>
      </trkpt>
      <trkpt lat="43.22254" lon="5.60278">
        <ele>162.11950683594</ele>
        <time>2012-01-22T11:06:55Z</time>
      </trkpt>
      <trkpt lat="43.22237" lon="5.60258">
        <ele>160.67749023438</ele>
        <time>2012-01-22T11:07:00Z</time>
      </trkpt>
      <trkpt lat="43.2222" lon="5.60253">
        <ele>158.27416992188</ele>
        <time>2012-01-22T11:07:04Z</time>
      </trkpt>
      <trkpt lat="43.22215" lon="5.60255">
        <ele>157.79357910156</ele>
        <time>2012-01-22T11:07:05Z</time>
      </trkpt>
      <trkpt lat="43.22178" lon="5.60296">
        <ele>153.94836425781</ele>
        <time>2012-01-22T11:07:16Z</time>
      </trkpt>
      <trkpt lat="43.22175" lon="5.60298">
        <ele>153.46765136719</ele>
        <time>2012-01-22T11:07:17Z</time>
      </trkpt>
      <trkpt lat="43.22168" lon="5.60298">
        <ele>152.98693847656</ele>
        <time>2012-01-22T11:07:19Z</time>
      </trkpt>
      <trkpt lat="43.22149" lon="5.60292">
        <ele>150.58361816406</ele>
        <time>2012-01-22T11:07:23Z</time>
      </trkpt>
      <trkpt lat="43.22127" lon="5.6028">
        <ele>148.66101074219</ele>
        <time>2012-01-22T11:07:28Z</time>
      </trkpt>
      <trkpt lat="43.22119" lon="5.60279">
        <ele>147.69970703125</ele>
        <time>2012-01-22T11:07:30Z</time>
      </trkpt>
      <trkpt lat="43.2211" lon="5.6028">
        <ele>146.73840332031</ele>
        <time>2012-01-22T11:07:32Z</time>
      </trkpt>
      <trkpt lat="43.22093" lon="5.60285">
        <ele>145.29638671875</ele>
        <time>2012-01-22T11:07:35Z</time>
      </trkpt>
      <trkpt lat="43.22082" lon="5.60287">
        <ele>144.81579589844</ele>
        <time>2012-01-22T11:07:43Z</time>
      </trkpt>
      <trkpt lat="43.22069" lon="5.60285">
        <ele>142.89306640625</ele>
        <time>2012-01-22T11:07:49Z</time>
      </trkpt>
      <trkpt lat="43.2206" lon="5.60281">
        <ele>141.93176269531</ele>
        <time>2012-01-22T11:07:51Z</time>
      </trkpt>
      <trkpt lat="43.22035" lon="5.60272">
        <ele>139.0478515625</ele>
        <time>2012-01-22T11:07:57Z</time>
      </trkpt>
      <trkpt lat="43.22019" lon="5.6027">
        <ele>137.12524414062</ele>
        <time>2012-01-22T11:08:00Z</time>
      </trkpt>
      <trkpt lat="43.22006" lon="5.60268">
        <ele>136.16394042969</ele>
        <time>2012-01-22T11:08:03Z</time>
      </trkpt>
      <trkpt lat="43.21982" lon="5.60279">
        <ele>132.79931640625</ele>
        <time>2012-01-22T11:08:10Z</time>
      </trkpt>
      <trkpt lat="43.21944" lon="5.60292">
        <ele>132.79931640625</ele>
        <time>2012-01-22T11:08:19Z</time>
      </trkpt>
      <trkpt lat="43.21939" lon="5.6029">
        <ele>133.27990722656</ele>
        <time>2012-01-22T11:08:22Z</time>
      </trkpt>
      <trkpt lat="43.21935" lon="5.60286">
        <ele>131.837890625</ele>
        <time>2012-01-22T11:08:24Z</time>
      </trkpt>
      <trkpt lat="43.21926" lon="5.60291">
        <ele>129.91528320312</ele>
        <time>2012-01-22T11:08:27Z</time>
      </trkpt>
      <trkpt lat="43.21919" lon="5.60296">
        <ele>128.9541015625</ele>
        <time>2012-01-22T11:08:29Z</time>
      </trkpt>
      <trkpt lat="43.21897" lon="5.60303">
        <ele>126.06994628906</ele>
        <time>2012-01-22T11:08:35Z</time>
      </trkpt>
      <trkpt lat="43.21879" lon="5.60304">
        <ele>124.62805175781</ele>
        <time>2012-01-22T11:08:38Z</time>
      </trkpt>
      <trkpt lat="43.21852" lon="5.60297">
        <ele>125.58935546875</ele>
        <time>2012-01-22T11:08:47Z</time>
      </trkpt>
      <trkpt lat="43.2184" lon="5.60287">
        <ele>124.62805175781</ele>
        <time>2012-01-22T11:09:03Z</time>
      </trkpt>
      <trkpt lat="43.21806" lon="5.60289">
        <ele>121.744140625</ele>
        <time>2012-01-22T11:09:12Z</time>
      </trkpt>
      <trkpt lat="43.21767" lon="5.60262">
        <ele>120.78283691406</ele>
        <time>2012-01-22T11:09:21Z</time>
      </trkpt>
      <trkpt lat="43.21745" lon="5.60261">
        <ele>122.22473144531</ele>
        <time>2012-01-22T11:09:29Z</time>
      </trkpt>
      <trkpt lat="43.21741" lon="5.60262">
        <ele>122.22473144531</ele>
        <time>2012-01-22T11:09:31Z</time>
      </trkpt>
      <trkpt lat="43.21744" lon="5.60262">
        <ele>122.70544433594</ele>
        <time>2012-01-22T11:09:36Z</time>
      </trkpt>
      <trkpt lat="43.21746" lon="5.60259">
        <ele>122.22473144531</ele>
        <time>2012-01-22T11:09:53Z</time>
      </trkpt>
      <trkpt lat="43.21747" lon="5.60258">
        <ele>123.18615722656</ele>
        <time>2012-01-22T11:10:09Z</time>
      </trkpt>
      <trkpt lat="43.21756" lon="5.60243">
        <ele>123.18615722656</ele>
        <time>2012-01-22T11:10:23Z</time>
      </trkpt>
      <trkpt lat="43.21783" lon="5.60219">
        <ele>123.18615722656</ele>
        <time>2012-01-22T11:10:38Z</time>
      </trkpt>
      <trkpt lat="43.21814" lon="5.60191">
        <ele>126.06994628906</ele>
        <time>2012-01-22T11:10:53Z</time>
      </trkpt>
      <trkpt lat="43.21831" lon="5.60167">
        <ele>127.51196289062</ele>
        <time>2012-01-22T11:11:03Z</time>
      </trkpt>
      <trkpt lat="43.21852" lon="5.60138">
        <ele>130.39599609375</ele>
        <time>2012-01-22T11:11:16Z</time>
      </trkpt>
      <trkpt lat="43.21872" lon="5.60112">
        <ele>130.39599609375</ele>
        <time>2012-01-22T11:11:28Z</time>
      </trkpt>
      <trkpt lat="43.21887" lon="5.6009">
        <ele>131.837890625</ele>
        <time>2012-01-22T11:11:41Z</time>
      </trkpt>
      <trkpt lat="43.21892" lon="5.60086">
        <ele>132.31860351562</ele>
        <time>2012-01-22T11:11:46Z</time>
      </trkpt>
      <trkpt lat="43.21896" lon="5.6008">
        <ele>132.79931640625</ele>
        <time>2012-01-22T11:11:50Z</time>
      </trkpt>
      <trkpt lat="43.21909" lon="5.6006">
        <ele>135.68310546875</ele>
        <time>2012-01-22T11:12:05Z</time>
      </trkpt>
      <trkpt lat="43.21914" lon="5.60047">
        <ele>136.64465332031</ele>
        <time>2012-01-22T11:12:12Z</time>
      </trkpt>
      <trkpt lat="43.21917" lon="5.60039">
        <ele>137.12524414062</ele>
        <time>2012-01-22T11:12:17Z</time>
      </trkpt>
      <trkpt lat="43.21919" lon="5.60035">
        <ele>137.60583496094</ele>
        <time>2012-01-22T11:12:20Z</time>
      </trkpt>
      <trkpt lat="43.21929" lon="5.60016">
        <ele>140.97045898438</ele>
        <time>2012-01-22T11:12:34Z</time>
      </trkpt>
      <trkpt lat="43.21933" lon="5.60007">
        <ele>142.89306640625</ele>
        <time>2012-01-22T11:12:41Z</time>
      </trkpt>
      <trkpt lat="43.21941" lon="5.5999">
        <ele>144.81579589844</ele>
        <time>2012-01-22T11:12:54Z</time>
      </trkpt>
      <trkpt lat="43.21943" lon="5.59982">
        <ele>145.77709960938</ele>
        <time>2012-01-22T11:12:59Z</time>
      </trkpt>
      <trkpt lat="43.2194" lon="5.59965">
        <ele>146.73840332031</ele>
        <time>2012-01-22T11:13:09Z</time>
      </trkpt>
      <trkpt lat="43.21936" lon="5.59955">
        <ele>147.21899414062</ele>
        <time>2012-01-22T11:13:15Z</time>
      </trkpt>
      <trkpt lat="43.21926" lon="5.59931">
        <ele>147.69970703125</ele>
        <time>2012-01-22T11:13:30Z</time>
      </trkpt>
      <trkpt lat="43.21915" lon="5.59907">
        <ele>150.10302734375</ele>
        <time>2012-01-22T11:13:45Z</time>
      </trkpt>
      <trkpt lat="43.21911" lon="5.599">
        <ele>150.10302734375</ele>
        <time>2012-01-22T11:13:49Z</time>
      </trkpt>
      <trkpt lat="43.21899" lon="5.59857">
        <ele>150.10302734375</ele>
        <time>2012-01-22T11:14:08Z</time>
      </trkpt>
      <trkpt lat="43.21917" lon="5.59824">
        <ele>152.50634765625</ele>
        <time>2012-01-22T11:14:21Z</time>
      </trkpt>
      <trkpt lat="43.21938" lon="5.59796">
        <ele>153.46765136719</ele>
        <time>2012-01-22T11:14:35Z</time>
      </trkpt>
      <trkpt lat="43.21958" lon="5.59774">
        <ele>156.3515625</ele>
        <time>2012-01-22T11:14:48Z</time>
      </trkpt>
      <trkpt lat="43.21985" lon="5.59781">
        <ele>155.39025878906</ele>
        <time>2012-01-22T11:15:02Z</time>
      </trkpt>
      <trkpt lat="43.22012" lon="5.59769">
        <ele>156.83215332031</ele>
        <time>2012-01-22T11:15:17Z</time>
      </trkpt>
      <trkpt lat="43.22013" lon="5.59765">
        <ele>156.83215332031</ele>
        <time>2012-01-22T11:15:19Z</time>
      </trkpt>
      <trkpt lat="43.22036" lon="5.5972">
        <ele>159.23547363281</ele>
        <time>2012-01-22T11:15:37Z</time>
      </trkpt>
      <trkpt lat="43.2204" lon="5.5971">
        <ele>159.71618652344</ele>
        <time>2012-01-22T11:15:41Z</time>
      </trkpt>
      <trkpt lat="43.22067" lon="5.59669">
        <ele>161.63891601562</ele>
        <time>2012-01-22T11:16:04Z</time>
      </trkpt>
      <trkpt lat="43.2209" lon="5.59638">
        <ele>163.08081054688</ele>
        <time>2012-01-22T11:16:22Z</time>
      </trkpt>
      <trkpt lat="43.22126" lon="5.59626">
        <ele>165.48413085938</ele>
        <time>2012-01-22T11:16:43Z</time>
      </trkpt>
      <trkpt lat="43.22158" lon="5.59622">
        <ele>167.40673828125</ele>
        <time>2012-01-22T11:17:01Z</time>
      </trkpt>
      <trkpt lat="43.2219" lon="5.59629">
        <ele>170.77136230469</ele>
        <time>2012-01-22T11:17:18Z</time>
      </trkpt>
      <trkpt lat="43.22191" lon="5.59629">
        <ele>170.77136230469</ele>
        <time>2012-01-22T11:17:19Z</time>
      </trkpt>
      <trkpt lat="43.22228" lon="5.59611">
        <ele>171.73266601562</ele>
        <time>2012-01-22T11:17:38Z</time>
      </trkpt>
      <trkpt lat="43.22263" lon="5.59598">
        <ele>173.6552734375</ele>
        <time>2012-01-22T11:17:57Z</time>
      </trkpt>
      <trkpt lat="43.22305" lon="5.59595">
        <ele>175.57788085938</ele>
        <time>2012-01-22T11:18:18Z</time>
      </trkpt>
      <trkpt lat="43.22341" lon="5.59577">
        <ele>177.50061035156</ele>
        <time>2012-01-22T11:18:38Z</time>
      </trkpt>
      <trkpt lat="43.22366" lon="5.59549">
        <ele>179.42321777344</ele>
        <time>2012-01-22T11:18:55Z</time>
      </trkpt>
      <trkpt lat="43.22391" lon="5.5952">
        <ele>180.865234375</ele>
        <time>2012-01-22T11:19:13Z</time>
      </trkpt>
      <trkpt lat="43.22393" lon="5.59517">
        <ele>181.82641601562</ele>
        <time>2012-01-22T11:19:15Z</time>
      </trkpt>
      <trkpt lat="43.22404" lon="5.59505">
        <ele>182.78784179688</ele>
        <time>2012-01-22T11:19:22Z</time>
      </trkpt>
      <trkpt lat="43.22429" lon="5.59476">
        <ele>184.22985839844</ele>
        <time>2012-01-22T11:19:39Z</time>
      </trkpt>
      <trkpt lat="43.22454" lon="5.59431">
        <ele>185.67175292969</ele>
        <time>2012-01-22T11:19:58Z</time>
      </trkpt>
      <trkpt lat="43.22481" lon="5.59375">
        <ele>187.11376953125</ele>
        <time>2012-01-22T11:20:21Z</time>
      </trkpt>
      <trkpt lat="43.22498" lon="5.59341">
        <ele>189.03637695312</ele>
        <time>2012-01-22T11:20:36Z</time>
      </trkpt>
      <trkpt lat="43.22526" lon="5.59298">
        <ele>190.958984375</ele>
        <time>2012-01-22T11:20:58Z</time>
      </trkpt>
      <trkpt lat="43.22555" lon="5.59276">
        <ele>192.40112304688</ele>
        <time>2012-01-22T11:21:17Z</time>
      </trkpt>
      <trkpt lat="43.22572" lon="5.59267">
        <ele>194.32373046875</ele>
        <time>2012-01-22T11:21:28Z</time>
      </trkpt>
      <trkpt lat="43.22603" lon="5.59251">
        <ele>194.80432128906</ele>
        <time>2012-01-22T11:21:47Z</time>
      </trkpt>
      <trkpt lat="43.22625" lon="5.59241">
        <ele>198.1689453125</ele>
        <time>2012-01-22T11:22:01Z</time>
      </trkpt>
      <trkpt lat="43.2266" lon="5.59224">
        <ele>199.13012695312</ele>
        <time>2012-01-22T11:22:23Z</time>
      </trkpt>
      <trkpt lat="43.22676" lon="5.59216">
        <ele>201.53356933594</ele>
        <time>2012-01-22T11:22:33Z</time>
      </trkpt>
      <trkpt lat="43.22703" lon="5.59209">
        <ele>201.53356933594</ele>
        <time>2012-01-22T11:22:49Z</time>
      </trkpt>
      <trkpt lat="43.22741" lon="5.59204">
        <ele>202.49487304688</ele>
        <time>2012-01-22T11:23:11Z</time>
      </trkpt>
      <trkpt lat="43.22764" lon="5.5919">
        <ele>204.89807128906</ele>
        <time>2012-01-22T11:23:27Z</time>
      </trkpt>
      <trkpt lat="43.228" lon="5.59179">
        <ele>206.82067871094</ele>
        <time>2012-01-22T11:23:48Z</time>
      </trkpt>
      <trkpt lat="43.2283" lon="5.59189">
        <ele>208.74340820312</ele>
        <time>2012-01-22T11:24:07Z</time>
      </trkpt>
      <trkpt lat="43.22851" lon="5.59206">
        <ele>209.70483398438</ele>
        <time>2012-01-22T11:24:25Z</time>
      </trkpt>
      <trkpt lat="43.22858" lon="5.59211">
        <ele>212.10803222656</ele>
        <time>2012-01-22T11:24:31Z</time>
      </trkpt>
      <trkpt lat="43.22868" lon="5.5922">
        <ele>212.58862304688</ele>
        <time>2012-01-22T11:24:40Z</time>
      </trkpt>
      <trkpt lat="43.22877" lon="5.59221">
        <ele>213.55004882812</ele>
        <time>2012-01-22T11:24:46Z</time>
      </trkpt>
      <trkpt lat="43.22894" lon="5.59235">
        <ele>215.47265625</ele>
        <time>2012-01-22T11:25:02Z</time>
      </trkpt>
      <trkpt lat="43.22901" lon="5.59238">
        <ele>216.43395996094</ele>
        <time>2012-01-22T11:25:08Z</time>
      </trkpt>
      <trkpt lat="43.22901" lon="5.5924">
        <ele>216.43395996094</ele>
        <time>2012-01-22T11:25:10Z</time>
      </trkpt>
      <trkpt lat="43.22902" lon="5.59243">
        <ele>216.43395996094</ele>
        <time>2012-01-22T11:25:34Z</time>
      </trkpt>
      <trkpt lat="43.22903" lon="5.59247">
        <ele>216.43395996094</ele>
        <time>2012-01-22T11:26:39Z</time>
      </trkpt>
      <trkpt lat="43.22903" lon="5.59252">
        <ele>218.35656738281</ele>
        <time>2012-01-22T11:27:28Z</time>
      </trkpt>
      <trkpt lat="43.22903" lon="5.59253">
        <ele>218.83728027344</ele>
        <time>2012-01-22T11:27:29Z</time>
      </trkpt>
      <trkpt lat="43.22912" lon="5.59256">
        <ele>219.79858398438</ele>
        <time>2012-01-22T11:27:36Z</time>
      </trkpt>
      <trkpt lat="43.22915" lon="5.59253">
        <ele>220.27917480469</ele>
        <time>2012-01-22T11:27:39Z</time>
      </trkpt>
      <trkpt lat="43.2292" lon="5.59251">
        <ele>221.24060058594</ele>
        <time>2012-01-22T11:27:43Z</time>
      </trkpt>
      <trkpt lat="43.22921" lon="5.59245">
        <ele>221.72119140625</ele>
        <time>2012-01-22T11:27:47Z</time>
      </trkpt>
      <trkpt lat="43.2292" lon="5.59219">
        <ele>224.60522460938</ele>
        <time>2012-01-22T11:28:03Z</time>
      </trkpt>
      <trkpt lat="43.2292" lon="5.59216">
        <ele>225.0859375</ele>
        <time>2012-01-22T11:28:05Z</time>
      </trkpt>
      <trkpt lat="43.2291" lon="5.59199">
        <ele>225.56652832031</ele>
        <time>2012-01-22T11:28:17Z</time>
      </trkpt>
      <trkpt lat="43.22894" lon="5.59178">
        <ele>227.48913574219</ele>
        <time>2012-01-22T11:28:32Z</time>
      </trkpt>
      <trkpt lat="43.2289" lon="5.59166">
        <ele>227.9697265625</ele>
        <time>2012-01-22T11:28:39Z</time>
      </trkpt>
      <trkpt lat="43.2289" lon="5.59159">
        <ele>228.45043945312</ele>
        <time>2012-01-22T11:28:43Z</time>
      </trkpt>
      <trkpt lat="43.2289" lon="5.59155">
        <ele>228.93115234375</ele>
        <time>2012-01-22T11:28:45Z</time>
      </trkpt>
      <trkpt lat="43.22891" lon="5.59149">
        <ele>228.93115234375</ele>
        <time>2012-01-22T11:28:48Z</time>
      </trkpt>
      <trkpt lat="43.2291" lon="5.59121">
        <ele>231.81494140625</ele>
        <time>2012-01-22T11:29:08Z</time>
      </trkpt>
      <trkpt lat="43.22921" lon="5.59093">
        <ele>233.25708007812</ele>
        <time>2012-01-22T11:29:25Z</time>
      </trkpt>
      <trkpt lat="43.22934" lon="5.5906">
        <ele>236.14099121094</ele>
        <time>2012-01-22T11:29:44Z</time>
      </trkpt>
      <trkpt lat="43.22936" lon="5.59057">
        <ele>236.14099121094</ele>
        <time>2012-01-22T11:29:46Z</time>
      </trkpt>
      <trkpt lat="43.22936" lon="5.59047">
        <ele>236.14099121094</ele>
        <time>2012-01-22T11:29:51Z</time>
      </trkpt>
      <trkpt lat="43.22935" lon="5.59044">
        <ele>236.14099121094</ele>
        <time>2012-01-22T11:29:53Z</time>
      </trkpt>
      <trkpt lat="43.22926" lon="5.59043">
        <ele>237.10229492188</ele>
        <time>2012-01-22T11:30:00Z</time>
      </trkpt>
      <trkpt lat="43.22905" lon="5.59048">
        <ele>240.46704101562</ele>
        <time>2012-01-22T11:30:15Z</time>
      </trkpt>
      <trkpt lat="43.22899" lon="5.59043">
        <ele>242.87023925781</ele>
        <time>2012-01-22T11:30:20Z</time>
      </trkpt>
      <trkpt lat="43.22888" lon="5.59035">
        <ele>242.87023925781</ele>
        <time>2012-01-22T11:30:29Z</time>
      </trkpt>
      <trkpt lat="43.22883" lon="5.59036">
        <ele>243.83154296875</ele>
        <time>2012-01-22T11:30:33Z</time>
      </trkpt>
      <trkpt lat="43.22868" lon="5.59056">
        <ele>245.2734375</ele>
        <time>2012-01-22T11:30:47Z</time>
      </trkpt>
      <trkpt lat="43.22859" lon="5.59059">
        <ele>245.75415039062</ele>
        <time>2012-01-22T11:30:54Z</time>
      </trkpt>
      <trkpt lat="43.22846" lon="5.59052">
        <ele>248.15759277344</ele>
        <time>2012-01-22T11:31:05Z</time>
      </trkpt>
      <trkpt lat="43.22821" lon="5.59041">
        <ele>248.15759277344</ele>
        <time>2012-01-22T11:31:25Z</time>
      </trkpt>
      <trkpt lat="43.22816" lon="5.59039">
        <ele>251.52209472656</ele>
        <time>2012-01-22T11:31:29Z</time>
      </trkpt>
      <trkpt lat="43.22789" lon="5.59032">
        <ele>253.44470214844</ele>
        <time>2012-01-22T11:31:50Z</time>
      </trkpt>
      <trkpt lat="43.22772" lon="5.5902">
        <ele>256.32873535156</ele>
        <time>2012-01-22T11:32:04Z</time>
      </trkpt>
      <trkpt lat="43.2277" lon="5.59019">
        <ele>256.80932617188</ele>
        <time>2012-01-22T11:32:05Z</time>
      </trkpt>
      <trkpt lat="43.22764" lon="5.59014">
        <ele>255.84802246094</ele>
        <time>2012-01-22T11:32:24Z</time>
      </trkpt>
      <trkpt lat="43.22762" lon="5.59009">
        <ele>256.32873535156</ele>
        <time>2012-01-22T11:32:55Z</time>
      </trkpt>
      <trkpt lat="43.22758" lon="5.59006">
        <ele>256.80932617188</ele>
        <time>2012-01-22T11:32:58Z</time>
      </trkpt>
      <trkpt lat="43.22739" lon="5.58973">
        <ele>258.73193359375</ele>
        <time>2012-01-22T11:33:21Z</time>
      </trkpt>
      <trkpt lat="43.22733" lon="5.5896">
        <ele>262.09655761719</ele>
        <time>2012-01-22T11:33:29Z</time>
      </trkpt>
      <trkpt lat="43.22728" lon="5.58937">
        <ele>263.05786132812</ele>
        <time>2012-01-22T11:33:41Z</time>
      </trkpt>
      <trkpt lat="43.22724" lon="5.58907">
        <ele>266.90319824219</ele>
        <time>2012-01-22T11:33:58Z</time>
      </trkpt>
      <trkpt lat="43.22715" lon="5.58897">
        <ele>267.86450195312</ele>
        <time>2012-01-22T11:34:09Z</time>
      </trkpt>
      <trkpt lat="43.22704" lon="5.58894">
        <ele>268.82580566406</ele>
        <time>2012-01-22T11:34:18Z</time>
      </trkpt>
      <trkpt lat="43.22693" lon="5.58887">
        <ele>271.70971679688</ele>
        <time>2012-01-22T11:34:29Z</time>
      </trkpt>
      <trkpt lat="43.22679" lon="5.58878">
        <ele>271.22912597656</ele>
        <time>2012-01-22T11:34:42Z</time>
      </trkpt>
      <trkpt lat="43.22676" lon="5.5886">
        <ele>271.70971679688</ele>
        <time>2012-01-22T11:34:53Z</time>
      </trkpt>
      <trkpt lat="43.22675" lon="5.58845">
        <ele>273.15185546875</ele>
        <time>2012-01-22T11:35:02Z</time>
      </trkpt>
      <trkpt lat="43.22678" lon="5.58819">
        <ele>272.1904296875</ele>
        <time>2012-01-22T11:35:16Z</time>
      </trkpt>
      <trkpt lat="43.22677" lon="5.5881">
        <ele>271.70971679688</ele>
        <time>2012-01-22T11:35:21Z</time>
      </trkpt>
      <trkpt lat="43.2267" lon="5.58797">
        <ele>270.74841308594</ele>
        <time>2012-01-22T11:35:29Z</time>
      </trkpt>
      <trkpt lat="43.22669" lon="5.58789">
        <ele>271.22912597656</ele>
        <time>2012-01-22T11:35:32Z</time>
      </trkpt>
      <trkpt lat="43.22661" lon="5.5877">
        <ele>271.70971679688</ele>
        <time>2012-01-22T11:35:46Z</time>
      </trkpt>
      <trkpt lat="43.22659" lon="5.58761">
        <ele>268.34509277344</ele>
        <time>2012-01-22T11:35:52Z</time>
      </trkpt>
      <trkpt lat="43.22657" lon="5.58753">
        <ele>267.86450195312</ele>
        <time>2012-01-22T11:35:54Z</time>
      </trkpt>
      <trkpt lat="43.22645" lon="5.58723">
        <ele>264.01928710938</ele>
        <time>2012-01-22T11:36:01Z</time>
      </trkpt>
      <trkpt lat="43.22637" lon="5.5871">
        <ele>260.65454101562</ele>
        <time>2012-01-22T11:36:03Z</time>
      </trkpt>
      <trkpt lat="43.22633" lon="5.58704">
        <ele>257.2900390625</ele>
        <time>2012-01-22T11:36:04Z</time>
      </trkpt>
      <trkpt lat="43.22624" lon="5.58685">
        <ele>257.77075195312</ele>
        <time>2012-01-22T11:36:07Z</time>
      </trkpt>
      <trkpt lat="43.22611" lon="5.58658">
        <ele>251.52209472656</ele>
        <time>2012-01-22T11:36:11Z</time>
      </trkpt>
      <trkpt lat="43.22605" lon="5.58642">
        <ele>252.4833984375</ele>
        <time>2012-01-22T11:36:13Z</time>
      </trkpt>
      <trkpt lat="43.22602" lon="5.58629">
        <ele>253.44470214844</ele>
        <time>2012-01-22T11:36:15Z</time>
      </trkpt>
      <trkpt lat="43.22594" lon="5.58612">
        <ele>252.96398925781</ele>
        <time>2012-01-22T11:36:18Z</time>
      </trkpt>
      <trkpt lat="43.22568" lon="5.58553">
        <ele>248.63818359375</ele>
        <time>2012-01-22T11:36:26Z</time>
      </trkpt>
      <trkpt lat="43.22545" lon="5.58522">
        <ele>243.83154296875</ele>
        <time>2012-01-22T11:36:31Z</time>
      </trkpt>
      <trkpt lat="43.22533" lon="5.58499">
        <ele>246.23486328125</ele>
        <time>2012-01-22T11:36:36Z</time>
      </trkpt>
      <trkpt lat="43.22524" lon="5.58486">
        <ele>242.87023925781</ele>
        <time>2012-01-22T11:36:40Z</time>
      </trkpt>
      <trkpt lat="43.22517" lon="5.58474">
        <ele>239.02490234375</ele>
        <time>2012-01-22T11:36:42Z</time>
      </trkpt>
      <trkpt lat="43.22513" lon="5.58468">
        <ele>239.02490234375</ele>
        <time>2012-01-22T11:36:43Z</time>
      </trkpt>
      <trkpt lat="43.22483" lon="5.58429">
        <ele>235.1796875</ele>
        <time>2012-01-22T11:36:52Z</time>
      </trkpt>
      <trkpt lat="43.22474" lon="5.58424">
        <ele>234.21838378906</ele>
        <time>2012-01-22T11:36:55Z</time>
      </trkpt>
      <trkpt lat="43.22456" lon="5.58437">
        <ele>229.41174316406</ele>
        <time>2012-01-22T11:36:59Z</time>
      </trkpt>
      <trkpt lat="43.22451" lon="5.58441">
        <ele>229.41174316406</ele>
        <time>2012-01-22T11:37:00Z</time>
      </trkpt>
      <trkpt lat="43.22419" lon="5.58447">
        <ele>229.41174316406</ele>
        <time>2012-01-22T11:37:06Z</time>
      </trkpt>
      <trkpt lat="43.22388" lon="5.58445">
        <ele>227.48913574219</ele>
        <time>2012-01-22T11:37:12Z</time>
      </trkpt>
      <trkpt lat="43.22367" lon="5.58447">
        <ele>226.04711914062</ele>
        <time>2012-01-22T11:37:16Z</time>
      </trkpt>
      <trkpt lat="43.2235" lon="5.58452">
        <ele>226.04711914062</ele>
        <time>2012-01-22T11:37:19Z</time>
      </trkpt>
      <trkpt lat="43.22335" lon="5.58443">
        <ele>227.48913574219</ele>
        <time>2012-01-22T11:37:23Z</time>
      </trkpt>
      <trkpt lat="43.22333" lon="5.5844">
        <ele>227.9697265625</ele>
        <time>2012-01-22T11:37:24Z</time>
      </trkpt>
      <trkpt lat="43.22331" lon="5.58432">
        <ele>229.41174316406</ele>
        <time>2012-01-22T11:37:27Z</time>
      </trkpt>
      <trkpt lat="43.22329" lon="5.58393">
        <ele>232.77648925781</ele>
        <time>2012-01-22T11:37:42Z</time>
      </trkpt>
      <trkpt lat="43.22324" lon="5.58345">
        <ele>236.14099121094</ele>
        <time>2012-01-22T11:37:59Z</time>
      </trkpt>
      <trkpt lat="43.22318" lon="5.58306">
        <ele>232.77648925781</ele>
        <time>2012-01-22T11:38:14Z</time>
      </trkpt>
      <trkpt lat="43.22316" lon="5.58291">
        <ele>232.77648925781</ele>
        <time>2012-01-22T11:38:17Z</time>
      </trkpt>
      <trkpt lat="43.22304" lon="5.58255">
        <ele>230.85375976562</ele>
        <time>2012-01-22T11:38:23Z</time>
      </trkpt>
      <trkpt lat="43.22301" lon="5.58244">
        <ele>229.41174316406</ele>
        <time>2012-01-22T11:38:25Z</time>
      </trkpt>
      <trkpt lat="43.22294" lon="5.58233">
        <ele>227.9697265625</ele>
        <time>2012-01-22T11:38:27Z</time>
      </trkpt>
      <trkpt lat="43.22261" lon="5.58206">
        <ele>225.56652832031</ele>
        <time>2012-01-22T11:38:39Z</time>
      </trkpt>
      <trkpt lat="43.22233" lon="5.58193">
        <ele>226.04711914062</ele>
        <time>2012-01-22T11:38:45Z</time>
      </trkpt>
      <trkpt lat="43.222" lon="5.5818">
        <ele>223.64379882812</ele>
        <time>2012-01-22T11:38:52Z</time>
      </trkpt>
      <trkpt lat="43.22186" lon="5.5817">
        <ele>219.31799316406</ele>
        <time>2012-01-22T11:38:55Z</time>
      </trkpt>
      <trkpt lat="43.22177" lon="5.58163">
        <ele>216.43395996094</ele>
        <time>2012-01-22T11:38:57Z</time>
      </trkpt>
      <trkpt lat="43.22157" lon="5.58155">
        <ele>211.62744140625</ele>
        <time>2012-01-22T11:39:01Z</time>
      </trkpt>
      <trkpt lat="43.22151" lon="5.58156">
        <ele>210.666015625</ele>
        <time>2012-01-22T11:39:02Z</time>
      </trkpt>
      <trkpt lat="43.22135" lon="5.58158">
        <ele>209.22412109375</ele>
        <time>2012-01-22T11:39:04Z</time>
      </trkpt>
      <trkpt lat="43.22102" lon="5.58155">
        <ele>205.37878417969</ele>
        <time>2012-01-22T11:39:09Z</time>
      </trkpt>
      <trkpt lat="43.22089" lon="5.58155">
        <ele>202.49487304688</ele>
        <time>2012-01-22T11:39:12Z</time>
      </trkpt>
      <trkpt lat="43.22078" lon="5.58163">
        <ele>203.93688964844</ele>
        <time>2012-01-22T11:39:16Z</time>
      </trkpt>
      <trkpt lat="43.22061" lon="5.58186">
        <ele>205.37878417969</ele>
        <time>2012-01-22T11:39:29Z</time>
      </trkpt>
      <trkpt lat="43.22033" lon="5.58228">
        <ele>206.34008789062</ele>
        <time>2012-01-22T11:39:47Z</time>
      </trkpt>
      <trkpt lat="43.22031" lon="5.5823">
        <ele>206.34008789062</ele>
        <time>2012-01-22T11:39:49Z</time>
      </trkpt>
      <trkpt lat="43.2201" lon="5.58232">
        <ele>208.74340820312</ele>
        <time>2012-01-22T11:40:07Z</time>
      </trkpt>
      <trkpt lat="43.22" lon="5.58234">
        <ele>210.18542480469</ele>
        <time>2012-01-22T11:40:14Z</time>
      </trkpt>
      <trkpt lat="43.21995" lon="5.58235">
        <ele>211.62744140625</ele>
        <time>2012-01-22T11:40:18Z</time>
      </trkpt>
      <trkpt lat="43.21984" lon="5.58235">
        <ele>214.99194335938</ele>
        <time>2012-01-22T11:40:31Z</time>
      </trkpt>
      <trkpt lat="43.21983" lon="5.58235">
        <ele>214.99194335938</ele>
        <time>2012-01-22T11:40:32Z</time>
      </trkpt>
      <trkpt lat="43.2197" lon="5.58237">
        <ele>214.51123046875</ele>
        <time>2012-01-22T11:40:43Z</time>
      </trkpt>
      <trkpt lat="43.21957" lon="5.58243">
        <ele>217.39538574219</ele>
        <time>2012-01-22T11:40:54Z</time>
      </trkpt>
      <trkpt lat="43.21954" lon="5.58245">
        <ele>214.51123046875</ele>
        <time>2012-01-22T11:41:09Z</time>
      </trkpt>
      <trkpt lat="43.21947" lon="5.58245">
        <ele>217.39538574219</ele>
        <time>2012-01-22T11:41:18Z</time>
      </trkpt>
      <trkpt lat="43.21938" lon="5.58245">
        <ele>221.24060058594</ele>
        <time>2012-01-22T11:41:31Z</time>
      </trkpt>
      <trkpt lat="43.21934" lon="5.58244">
        <ele>223.64379882812</ele>
        <time>2012-01-22T11:41:38Z</time>
      </trkpt>
      <trkpt lat="43.21923" lon="5.5824">
        <ele>223.64379882812</ele>
        <time>2012-01-22T11:41:54Z</time>
      </trkpt>
      <trkpt lat="43.21919" lon="5.5824">
        <ele>226.04711914062</ele>
        <time>2012-01-22T11:41:58Z</time>
      </trkpt>
      <trkpt lat="43.21909" lon="5.58246">
        <ele>227.00854492188</ele>
        <time>2012-01-22T11:42:18Z</time>
      </trkpt>
      <trkpt lat="43.21908" lon="5.58246">
        <ele>227.00854492188</ele>
        <time>2012-01-22T11:42:25Z</time>
      </trkpt>
      <trkpt lat="43.21882" lon="5.58266">
        <ele>223.16320800781</ele>
        <time>2012-01-22T11:42:37Z</time>
      </trkpt>
      <trkpt lat="43.21877" lon="5.58269">
        <ele>223.16320800781</ele>
        <time>2012-01-22T11:42:38Z</time>
      </trkpt>
      <trkpt lat="43.21862" lon="5.5828">
        <ele>221.24060058594</ele>
        <time>2012-01-22T11:42:41Z</time>
      </trkpt>
      <trkpt lat="43.21851" lon="5.58288">
        <ele>219.79858398438</ele>
        <time>2012-01-22T11:42:43Z</time>
      </trkpt>
      <trkpt lat="43.21832" lon="5.58309">
        <ele>217.39538574219</ele>
        <time>2012-01-22T11:42:47Z</time>
      </trkpt>
      <trkpt lat="43.21823" lon="5.58331">
        <ele>218.83728027344</ele>
        <time>2012-01-22T11:42:52Z</time>
      </trkpt>
      <trkpt lat="43.21819" lon="5.58399">
        <ele>218.35656738281</ele>
        <time>2012-01-22T11:43:08Z</time>
      </trkpt>
      <trkpt lat="43.21817" lon="5.58433">
        <ele>216.43395996094</ele>
        <time>2012-01-22T11:43:14Z</time>
      </trkpt>
      <trkpt lat="43.21815" lon="5.58445">
        <ele>216.43395996094</ele>
        <time>2012-01-22T11:43:16Z</time>
      </trkpt>
      <trkpt lat="43.21815" lon="5.58465">
        <ele>218.35656738281</ele>
        <time>2012-01-22T11:43:20Z</time>
      </trkpt>
      <trkpt lat="43.2182" lon="5.58515">
        <ele>220.27917480469</ele>
        <time>2012-01-22T11:43:36Z</time>
      </trkpt>
      <trkpt lat="43.21821" lon="5.58521">
        <ele>220.27917480469</ele>
        <time>2012-01-22T11:43:39Z</time>
      </trkpt>
      <trkpt lat="43.21823" lon="5.58528">
        <ele>219.31799316406</ele>
        <time>2012-01-22T11:43:43Z</time>
      </trkpt>
      <trkpt lat="43.21824" lon="5.58532">
        <ele>220.27917480469</ele>
        <time>2012-01-22T11:43:52Z</time>
      </trkpt>
      <trkpt lat="43.21825" lon="5.58531">
        <ele>218.83728027344</ele>
        <time>2012-01-22T11:43:55Z</time>
      </trkpt>
      <trkpt lat="43.21828" lon="5.5852">
        <ele>222.20178222656</ele>
        <time>2012-01-22T11:44:04Z</time>
      </trkpt>
      <trkpt lat="43.21829" lon="5.58519">
        <ele>222.20178222656</ele>
        <time>2012-01-22T11:44:05Z</time>
      </trkpt>
      <trkpt lat="43.21832" lon="5.58509">
        <ele>220.75988769531</ele>
        <time>2012-01-22T11:44:21Z</time>
      </trkpt>
      <trkpt lat="43.21834" lon="5.58505">
        <ele>222.20178222656</ele>
        <time>2012-01-22T11:44:23Z</time>
      </trkpt>
      <trkpt lat="43.21838" lon="5.58494">
        <ele>222.68249511719</ele>
        <time>2012-01-22T11:44:28Z</time>
      </trkpt>
      <trkpt lat="43.21846" lon="5.58479">
        <ele>223.64379882812</ele>
        <time>2012-01-22T11:44:39Z</time>
      </trkpt>
      <trkpt lat="43.21849" lon="5.58478">
        <ele>224.12451171875</ele>
        <time>2012-01-22T11:44:42Z</time>
      </trkpt>
      <trkpt lat="43.21851" lon="5.58471">
        <ele>224.12451171875</ele>
        <time>2012-01-22T11:44:57Z</time>
      </trkpt>
      <trkpt lat="43.21851" lon="5.58474">
        <ele>224.12451171875</ele>
        <time>2012-01-22T11:45:10Z</time>
      </trkpt>
      <trkpt lat="43.21851" lon="5.58475">
        <ele>224.12451171875</ele>
        <time>2012-01-22T11:45:11Z</time>
      </trkpt>
      <trkpt lat="43.21836" lon="5.58499">
        <ele>221.24060058594</ele>
        <time>2012-01-22T11:45:22Z</time>
      </trkpt>
      <trkpt lat="43.21834" lon="5.58504">
        <ele>220.75988769531</ele>
        <time>2012-01-22T11:45:23Z</time>
      </trkpt>
      <trkpt lat="43.21831" lon="5.58511">
        <ele>220.27917480469</ele>
        <time>2012-01-22T11:45:25Z</time>
      </trkpt>
      <trkpt lat="43.21823" lon="5.58516">
        <ele>218.35656738281</ele>
        <time>2012-01-22T11:45:30Z</time>
      </trkpt>
      <trkpt lat="43.2182" lon="5.5852">
        <ele>217.8759765625</ele>
        <time>2012-01-22T11:45:32Z</time>
      </trkpt>
      <trkpt lat="43.21821" lon="5.58524">
        <ele>218.35656738281</ele>
        <time>2012-01-22T11:45:34Z</time>
      </trkpt>
      <trkpt lat="43.21824" lon="5.58541">
        <ele>218.35656738281</ele>
        <time>2012-01-22T11:45:48Z</time>
      </trkpt>
      <trkpt lat="43.21822" lon="5.58561">
        <ele>216.91467285156</ele>
        <time>2012-01-22T11:46:00Z</time>
      </trkpt>
      <trkpt lat="43.21823" lon="5.58567">
        <ele>214.99194335938</ele>
        <time>2012-01-22T11:46:09Z</time>
      </trkpt>
      <trkpt lat="43.21822" lon="5.58566">
        <ele>215.95324707031</ele>
        <time>2012-01-22T11:48:26Z</time>
      </trkpt>
      <trkpt lat="43.21818" lon="5.58573">
        <ele>214.99194335938</ele>
        <time>2012-01-22T11:48:31Z</time>
      </trkpt>
      <trkpt lat="43.21822" lon="5.58577">
        <ele>215.47265625</ele>
        <time>2012-01-22T11:48:42Z</time>
      </trkpt>
      <trkpt lat="43.21829" lon="5.58571">
        <ele>216.91467285156</ele>
        <time>2012-01-22T11:48:49Z</time>
      </trkpt>
      <trkpt lat="43.21838" lon="5.58551">
        <ele>220.75988769531</ele>
        <time>2012-01-22T11:49:02Z</time>
      </trkpt>
      <trkpt lat="43.21847" lon="5.58534">
        <ele>223.64379882812</ele>
        <time>2012-01-22T11:49:14Z</time>
      </trkpt>
      <trkpt lat="43.21862" lon="5.58515">
        <ele>225.0859375</ele>
        <time>2012-01-22T11:49:34Z</time>
      </trkpt>
      <trkpt lat="43.21866" lon="5.5851">
        <ele>226.52783203125</ele>
        <time>2012-01-22T11:49:40Z</time>
      </trkpt>
      <trkpt lat="43.21874" lon="5.58499">
        <ele>228.45043945312</ele>
        <time>2012-01-22T11:49:51Z</time>
      </trkpt>
      <trkpt lat="43.21879" lon="5.5849">
        <ele>227.48913574219</ele>
        <time>2012-01-22T11:49:58Z</time>
      </trkpt>
      <trkpt lat="43.21892" lon="5.58481">
        <ele>229.41174316406</ele>
        <time>2012-01-22T11:50:18Z</time>
      </trkpt>
      <trkpt lat="43.21907" lon="5.58484">
        <ele>232.29577636719</ele>
        <time>2012-01-22T11:50:39Z</time>
      </trkpt>
      <trkpt lat="43.21923" lon="5.58486">
        <ele>235.1796875</ele>
        <time>2012-01-22T11:50:55Z</time>
      </trkpt>
      <trkpt lat="43.21942" lon="5.58481">
        <ele>238.06359863281</ele>
        <time>2012-01-22T11:51:17Z</time>
      </trkpt>
      <trkpt lat="43.21946" lon="5.58477">
        <ele>239.50549316406</ele>
        <time>2012-01-22T11:51:23Z</time>
      </trkpt>
      <trkpt lat="43.21953" lon="5.58472">
        <ele>239.50549316406</ele>
        <time>2012-01-22T11:51:32Z</time>
      </trkpt>
      <trkpt lat="43.21955" lon="5.58468">
        <ele>240.94763183594</ele>
        <time>2012-01-22T11:51:38Z</time>
      </trkpt>
      <trkpt lat="43.21962" lon="5.58457">
        <ele>242.3896484375</ele>
        <time>2012-01-22T11:51:56Z</time>
      </trkpt>
      <trkpt lat="43.21974" lon="5.5844">
        <ele>243.83154296875</ele>
        <time>2012-01-22T11:52:11Z</time>
      </trkpt>
      <trkpt lat="43.21981" lon="5.58432">
        <ele>246.23486328125</ele>
        <time>2012-01-22T11:52:19Z</time>
      </trkpt>
      <trkpt lat="43.21987" lon="5.58426">
        <ele>246.71545410156</ele>
        <time>2012-01-22T11:52:25Z</time>
      </trkpt>
      <trkpt lat="43.21993" lon="5.58419">
        <ele>247.6767578125</ele>
        <time>2012-01-22T11:52:42Z</time>
      </trkpt>
      <trkpt lat="43.21996" lon="5.58417">
        <ele>250.56079101562</ele>
        <time>2012-01-22T11:53:05Z</time>
      </trkpt>
      <trkpt lat="43.22002" lon="5.58414">
        <ele>251.04138183594</ele>
        <time>2012-01-22T11:53:53Z</time>
      </trkpt>
      <trkpt lat="43.22022" lon="5.58406">
        <ele>252.96398925781</ele>
        <time>2012-01-22T11:54:18Z</time>
      </trkpt>
      <trkpt lat="43.22031" lon="5.58401">
        <ele>254.88659667969</ele>
        <time>2012-01-22T11:54:41Z</time>
      </trkpt>
      <trkpt lat="43.22043" lon="5.58396">
        <ele>255.84802246094</ele>
        <time>2012-01-22T11:54:59Z</time>
      </trkpt>
      <trkpt lat="43.22062" lon="5.58392">
        <ele>258.25134277344</ele>
        <time>2012-01-22T11:55:20Z</time>
      </trkpt>
      <trkpt lat="43.22065" lon="5.58391">
        <ele>258.25134277344</ele>
        <time>2012-01-22T11:55:22Z</time>
      </trkpt>
      <trkpt lat="43.22069" lon="5.58391">
        <ele>260.17395019531</ele>
        <time>2012-01-22T11:55:27Z</time>
      </trkpt>
      <trkpt lat="43.22071" lon="5.5839">
        <ele>260.17395019531</ele>
        <time>2012-01-22T11:55:29Z</time>
      </trkpt>
      <trkpt lat="43.22078" lon="5.58389">
        <ele>262.5771484375</ele>
        <time>2012-01-22T11:55:37Z</time>
      </trkpt>
      <trkpt lat="43.2208" lon="5.58389">
        <ele>259.21264648438</ele>
        <time>2012-01-22T11:55:39Z</time>
      </trkpt>
      <trkpt lat="43.2208" lon="5.58388">
        <ele>258.73193359375</ele>
        <time>2012-01-22T11:55:40Z</time>
      </trkpt>
      <trkpt lat="43.22083" lon="5.58388">
        <ele>263.05786132812</ele>
        <time>2012-01-22T11:55:43Z</time>
      </trkpt>
      <trkpt lat="43.22084" lon="5.58388">
        <ele>263.05786132812</ele>
        <time>2012-01-22T11:55:44Z</time>
      </trkpt>
      <trkpt lat="43.22089" lon="5.58386">
        <ele>262.5771484375</ele>
        <time>2012-01-22T11:56:10Z</time>
      </trkpt>
      <trkpt lat="43.221" lon="5.58385">
        <ele>265.94189453125</ele>
        <time>2012-01-22T11:56:24Z</time>
      </trkpt>
      <trkpt lat="43.22108" lon="5.58385">
        <ele>268.34509277344</ele>
        <time>2012-01-22T11:56:33Z</time>
      </trkpt>
      <trkpt lat="43.22123" lon="5.58385">
        <ele>269.30651855469</ele>
        <time>2012-01-22T11:56:50Z</time>
      </trkpt>
      <trkpt lat="43.22133" lon="5.58386">
        <ele>270.74841308594</ele>
        <time>2012-01-22T11:57:02Z</time>
      </trkpt>
      <trkpt lat="43.22136" lon="5.58386">
        <ele>270.26770019531</ele>
        <time>2012-01-22T11:57:29Z</time>
      </trkpt>
      <trkpt lat="43.22143" lon="5.58387">
        <ele>274.11303710938</ele>
        <time>2012-01-22T11:57:44Z</time>
      </trkpt>
      <trkpt lat="43.22144" lon="5.58387">
        <ele>274.11303710938</ele>
        <time>2012-01-22T11:57:45Z</time>
      </trkpt>
      <trkpt lat="43.22156" lon="5.58388">
        <ele>276.03564453125</ele>
        <time>2012-01-22T11:58:05Z</time>
      </trkpt>
      <trkpt lat="43.22162" lon="5.5839">
        <ele>275.55505371094</ele>
        <time>2012-01-22T11:58:30Z</time>
      </trkpt>
      <trkpt lat="43.22183" lon="5.58393">
        <ele>278.91967773438</ele>
        <time>2012-01-22T11:58:47Z</time>
      </trkpt>
      <trkpt lat="43.22202" lon="5.58399">
        <ele>280.84240722656</ele>
        <time>2012-01-22T11:59:04Z</time>
      </trkpt>
      <trkpt lat="43.22206" lon="5.58411">
        <ele>280.84240722656</ele>
        <time>2012-01-22T11:59:12Z</time>
      </trkpt>
      <trkpt lat="43.22218" lon="5.58452">
        <ele>283.72619628906</ele>
        <time>2012-01-22T11:59:37Z</time>
      </trkpt>
      <trkpt lat="43.22221" lon="5.58461">
        <ele>283.24560546875</ele>
        <time>2012-01-22T11:59:43Z</time>
      </trkpt>
      <trkpt lat="43.22222" lon="5.5847">
        <ele>284.20690917969</ele>
        <time>2012-01-22T11:59:49Z</time>
      </trkpt>
      <trkpt lat="43.22228" lon="5.58512">
        <ele>285.64880371094</ele>
        <time>2012-01-22T12:00:08Z</time>
      </trkpt>
      <trkpt lat="43.22224" lon="5.58561">
        <ele>286.61022949219</ele>
        <time>2012-01-22T12:00:25Z</time>
      </trkpt>
      <trkpt lat="43.22222" lon="5.58568">
        <ele>285.16821289062</ele>
        <time>2012-01-22T12:00:28Z</time>
      </trkpt>
      <trkpt lat="43.22215" lon="5.58612">
        <ele>285.64880371094</ele>
        <time>2012-01-22T12:00:47Z</time>
      </trkpt>
      <trkpt lat="43.22218" lon="5.58648">
        <ele>286.61022949219</ele>
        <time>2012-01-22T12:01:03Z</time>
      </trkpt>
      <trkpt lat="43.22223" lon="5.58654">
        <ele>286.12951660156</ele>
        <time>2012-01-22T12:01:07Z</time>
      </trkpt>
      <trkpt lat="43.22236" lon="5.58672">
        <ele>289.01354980469</ele>
        <time>2012-01-22T12:01:18Z</time>
      </trkpt>
      <trkpt lat="43.22257" lon="5.58706">
        <ele>289.01354980469</ele>
        <time>2012-01-22T12:01:41Z</time>
      </trkpt>
      <trkpt lat="43.22258" lon="5.58709">
        <ele>289.97485351562</ele>
        <time>2012-01-22T12:01:43Z</time>
      </trkpt>
      <trkpt lat="43.22258" lon="5.5871">
        <ele>290.93615722656</ele>
        <time>2012-01-22T12:01:44Z</time>
      </trkpt>
      <trkpt lat="43.22259" lon="5.58722">
        <ele>288.05224609375</ele>
        <time>2012-01-22T12:01:51Z</time>
      </trkpt>
      <trkpt lat="43.2226" lon="5.58729">
        <ele>289.01354980469</ele>
        <time>2012-01-22T12:01:56Z</time>
      </trkpt>
      <trkpt lat="43.2226" lon="5.5873">
        <ele>288.53295898438</ele>
        <time>2012-01-22T12:02:06Z</time>
      </trkpt>
      <trkpt lat="43.2226" lon="5.58747">
        <ele>288.05224609375</ele>
        <time>2012-01-22T12:02:12Z</time>
      </trkpt>
      <trkpt lat="43.22258" lon="5.58761">
        <ele>286.12951660156</ele>
        <time>2012-01-22T12:02:15Z</time>
      </trkpt>
      <trkpt lat="43.22256" lon="5.58786">
        <ele>283.72619628906</ele>
        <time>2012-01-22T12:02:20Z</time>
      </trkpt>
      <trkpt lat="43.22248" lon="5.58793">
        <ele>283.24560546875</ele>
        <time>2012-01-22T12:02:24Z</time>
      </trkpt>
      <trkpt lat="43.22209" lon="5.58796">
        <ele>282.28430175781</ele>
        <time>2012-01-22T12:02:38Z</time>
      </trkpt>
      <trkpt lat="43.22191" lon="5.58781">
        <ele>279.40026855469</ele>
        <time>2012-01-22T12:02:45Z</time>
      </trkpt>
      <trkpt lat="43.22177" lon="5.58762">
        <ele>278.91967773438</ele>
        <time>2012-01-22T12:02:50Z</time>
      </trkpt>
      <trkpt lat="43.22158" lon="5.58748">
        <ele>275.07446289062</ele>
        <time>2012-01-22T12:02:55Z</time>
      </trkpt>
      <trkpt lat="43.22142" lon="5.58735">
        <ele>271.22912597656</ele>
        <time>2012-01-22T12:02:59Z</time>
      </trkpt>
      <trkpt lat="43.22129" lon="5.5873">
        <ele>269.787109375</ele>
        <time>2012-01-22T12:03:02Z</time>
      </trkpt>
      <trkpt lat="43.22117" lon="5.5874">
        <ele>267.86450195312</ele>
        <time>2012-01-22T12:03:08Z</time>
      </trkpt>
      <trkpt lat="43.2211" lon="5.58771">
        <ele>264.01928710938</ele>
        <time>2012-01-22T12:03:14Z</time>
      </trkpt>
      <trkpt lat="43.22106" lon="5.58785">
        <ele>263.05786132812</ele>
        <time>2012-01-22T12:03:16Z</time>
      </trkpt>
      <trkpt lat="43.22103" lon="5.588">
        <ele>261.61596679688</ele>
        <time>2012-01-22T12:03:18Z</time>
      </trkpt>
      <trkpt lat="43.221" lon="5.58828">
        <ele>260.65454101562</ele>
        <time>2012-01-22T12:03:22Z</time>
      </trkpt>
      <trkpt lat="43.22096" lon="5.58842">
        <ele>260.17395019531</ele>
        <time>2012-01-22T12:03:24Z</time>
      </trkpt>
      <trkpt lat="43.22087" lon="5.58864">
        <ele>258.25134277344</ele>
        <time>2012-01-22T12:03:27Z</time>
      </trkpt>
      <trkpt lat="43.22079" lon="5.5889">
        <ele>255.36730957031</ele>
        <time>2012-01-22T12:03:30Z</time>
      </trkpt>
      <trkpt lat="43.22079" lon="5.58954">
        <ele>251.52209472656</ele>
        <time>2012-01-22T12:03:38Z</time>
      </trkpt>
      <trkpt lat="43.22075" lon="5.58993">
        <ele>247.6767578125</ele>
        <time>2012-01-22T12:03:42Z</time>
      </trkpt>
      <trkpt lat="43.2207" lon="5.59014">
        <ele>244.79284667969</ele>
        <time>2012-01-22T12:03:44Z</time>
      </trkpt>
      <trkpt lat="43.22061" lon="5.59047">
        <ele>242.87023925781</ele>
        <time>2012-01-22T12:03:47Z</time>
      </trkpt>
      <trkpt lat="43.2205" lon="5.59077">
        <ele>241.90893554688</ele>
        <time>2012-01-22T12:03:51Z</time>
      </trkpt>
      <trkpt lat="43.22049" lon="5.5911">
        <ele>237.58288574219</ele>
        <time>2012-01-22T12:03:56Z</time>
      </trkpt>
      <trkpt lat="43.2205" lon="5.59117">
        <ele>237.58288574219</ele>
        <time>2012-01-22T12:03:57Z</time>
      </trkpt>
      <trkpt lat="43.22051" lon="5.59131">
        <ele>236.62170410156</ele>
        <time>2012-01-22T12:03:59Z</time>
      </trkpt>
      <trkpt lat="43.22052" lon="5.59156">
        <ele>238.06359863281</ele>
        <time>2012-01-22T12:04:08Z</time>
      </trkpt>
      <trkpt lat="43.22052" lon="5.59157">
        <ele>238.06359863281</ele>
        <time>2012-01-22T12:04:09Z</time>
      </trkpt>
      <trkpt lat="43.22044" lon="5.59173">
        <ele>237.10229492188</ele>
        <time>2012-01-22T12:04:17Z</time>
      </trkpt>
      <trkpt lat="43.22047" lon="5.59187">
        <ele>236.62170410156</ele>
        <time>2012-01-22T12:04:22Z</time>
      </trkpt>
      <trkpt lat="43.22041" lon="5.59218">
        <ele>233.25708007812</ele>
        <time>2012-01-22T12:04:30Z</time>
      </trkpt>
      <trkpt lat="43.22038" lon="5.59229">
        <ele>231.81494140625</ele>
        <time>2012-01-22T12:04:32Z</time>
      </trkpt>
      <trkpt lat="43.2203" lon="5.59255">
        <ele>229.41174316406</ele>
        <time>2012-01-22T12:04:36Z</time>
      </trkpt>
      <trkpt lat="43.22025" lon="5.59279">
        <ele>226.52783203125</ele>
        <time>2012-01-22T12:04:40Z</time>
      </trkpt>
      <trkpt lat="43.22022" lon="5.59291">
        <ele>225.0859375</ele>
        <time>2012-01-22T12:04:42Z</time>
      </trkpt>
      <trkpt lat="43.22016" lon="5.59311">
        <ele>222.20178222656</ele>
        <time>2012-01-22T12:04:45Z</time>
      </trkpt>
      <trkpt lat="43.2201" lon="5.59364">
        <ele>218.35656738281</ele>
        <time>2012-01-22T12:04:53Z</time>
      </trkpt>
      <trkpt lat="43.22008" lon="5.5937">
        <ele>217.8759765625</ele>
        <time>2012-01-22T12:04:54Z</time>
      </trkpt>
      <trkpt lat="43.22002" lon="5.5939">
        <ele>214.99194335938</ele>
        <time>2012-01-22T12:04:58Z</time>
      </trkpt>
      <trkpt lat="43.21992" lon="5.59402">
        <ele>211.62744140625</ele>
        <time>2012-01-22T12:05:02Z</time>
      </trkpt>
      <trkpt lat="43.21987" lon="5.59411">
        <ele>211.14672851562</ele>
        <time>2012-01-22T12:05:04Z</time>
      </trkpt>
      <trkpt lat="43.2199" lon="5.5945">
        <ele>210.18542480469</ele>
        <time>2012-01-22T12:05:13Z</time>
      </trkpt>
      <trkpt lat="43.21997" lon="5.59518">
        <ele>210.18542480469</ele>
        <time>2012-01-22T12:05:28Z</time>
      </trkpt>
      <trkpt lat="43.21993" lon="5.59571">
        <ele>209.70483398438</ele>
        <time>2012-01-22T12:05:39Z</time>
      </trkpt>
      <trkpt lat="43.21985" lon="5.59594">
        <ele>207.30139160156</ele>
        <time>2012-01-22T12:05:44Z</time>
      </trkpt>
      <trkpt lat="43.21974" lon="5.59617">
        <ele>203.45617675781</ele>
        <time>2012-01-22T12:05:49Z</time>
      </trkpt>
      <trkpt lat="43.21971" lon="5.59621">
        <ele>203.45617675781</ele>
        <time>2012-01-22T12:05:50Z</time>
      </trkpt>
      <trkpt lat="43.21959" lon="5.59639">
        <ele>200.09167480469</ele>
        <time>2012-01-22T12:05:55Z</time>
      </trkpt>
      <trkpt lat="43.21954" lon="5.59647">
        <ele>199.13012695312</ele>
        <time>2012-01-22T12:05:57Z</time>
      </trkpt>
      <trkpt lat="43.21938" lon="5.59658">
        <ele>196.24633789062</ele>
        <time>2012-01-22T12:06:02Z</time>
      </trkpt>
      <trkpt lat="43.21917" lon="5.59683">
        <ele>193.3623046875</ele>
        <time>2012-01-22T12:06:07Z</time>
      </trkpt>
      <trkpt lat="43.2191" lon="5.59695">
        <ele>192.88171386719</ele>
        <time>2012-01-22T12:06:09Z</time>
      </trkpt>
      <trkpt lat="43.21893" lon="5.59722">
        <ele>189.51696777344</ele>
        <time>2012-01-22T12:06:15Z</time>
      </trkpt>
      <trkpt lat="43.21889" lon="5.59726">
        <ele>189.03637695312</ele>
        <time>2012-01-22T12:06:16Z</time>
      </trkpt>
      <trkpt lat="43.21881" lon="5.59735">
        <ele>187.11376953125</ele>
        <time>2012-01-22T12:06:18Z</time>
      </trkpt>
      <trkpt lat="43.21858" lon="5.59767">
        <ele>183.26843261719</ele>
        <time>2012-01-22T12:06:24Z</time>
      </trkpt>
      <trkpt lat="43.21843" lon="5.59783">
        <ele>179.90380859375</ele>
        <time>2012-01-22T12:06:28Z</time>
      </trkpt>
      <trkpt lat="43.21839" lon="5.59788">
        <ele>178.94262695312</ele>
        <time>2012-01-22T12:06:29Z</time>
      </trkpt>
      <trkpt lat="43.21831" lon="5.59801">
        <ele>176.53930664062</ele>
        <time>2012-01-22T12:06:31Z</time>
      </trkpt>
      <trkpt lat="43.21804" lon="5.59855">
        <ele>173.17468261719</ele>
        <time>2012-01-22T12:06:38Z</time>
      </trkpt>
      <trkpt lat="43.21795" lon="5.59881">
        <ele>171.25207519531</ele>
        <time>2012-01-22T12:06:42Z</time>
      </trkpt>
      <trkpt lat="43.21793" lon="5.59889">
        <ele>170.77136230469</ele>
        <time>2012-01-22T12:06:47Z</time>
      </trkpt>
      <trkpt lat="43.2178" lon="5.59904">
        <ele>167.88732910156</ele>
        <time>2012-01-22T12:06:53Z</time>
      </trkpt>
      <trkpt lat="43.21773" lon="5.59915">
        <ele>166.4453125</ele>
        <time>2012-01-22T12:06:55Z</time>
      </trkpt>
      <trkpt lat="43.21761" lon="5.59931">
        <ele>163.5615234375</ele>
        <time>2012-01-22T12:06:58Z</time>
      </trkpt>
      <trkpt lat="43.21749" lon="5.59949">
        <ele>162.11950683594</ele>
        <time>2012-01-22T12:07:01Z</time>
      </trkpt>
      <trkpt lat="43.21739" lon="5.59965">
        <ele>159.23547363281</ele>
        <time>2012-01-22T12:07:04Z</time>
      </trkpt>
      <trkpt lat="43.21726" lon="5.59993">
        <ele>155.87097167969</ele>
        <time>2012-01-22T12:07:08Z</time>
      </trkpt>
      <trkpt lat="43.21704" lon="5.60021">
        <ele>152.50634765625</ele>
        <time>2012-01-22T12:07:14Z</time>
      </trkpt>
      <trkpt lat="43.21701" lon="5.60025">
        <ele>152.02575683594</ele>
        <time>2012-01-22T12:07:15Z</time>
      </trkpt>
      <trkpt lat="43.21698" lon="5.60039">
        <ele>149.62231445312</ele>
        <time>2012-01-22T12:07:22Z</time>
      </trkpt>
      <trkpt lat="43.21703" lon="5.6009">
        <ele>146.2578125</ele>
        <time>2012-01-22T12:07:31Z</time>
      </trkpt>
      <trkpt lat="43.21705" lon="5.60113">
        <ele>143.85437011719</ele>
        <time>2012-01-22T12:07:34Z</time>
      </trkpt>
      <trkpt lat="43.21705" lon="5.60134">
        <ele>141.93176269531</ele>
        <time>2012-01-22T12:07:37Z</time>
      </trkpt>
      <trkpt lat="43.21702" lon="5.60161">
        <ele>138.56726074219</ele>
        <time>2012-01-22T12:07:42Z</time>
      </trkpt>
      <trkpt lat="43.2169" lon="5.60183">
        <ele>136.16394042969</ele>
        <time>2012-01-22T12:07:50Z</time>
      </trkpt>
      <trkpt lat="43.21679" lon="5.6018">
        <ele>132.31860351562</ele>
        <time>2012-01-22T12:07:55Z</time>
      </trkpt>
      <trkpt lat="43.21668" lon="5.60174">
        <ele>129.91528320312</ele>
        <time>2012-01-22T12:07:58Z</time>
      </trkpt>
      <trkpt lat="43.21658" lon="5.60188">
        <ele>127.99255371094</ele>
        <time>2012-01-22T12:08:03Z</time>
      </trkpt>
      <trkpt lat="43.2166" lon="5.60213">
        <ele>124.14733886719</ele>
        <time>2012-01-22T12:08:08Z</time>
      </trkpt>
      <trkpt lat="43.21661" lon="5.60238">
        <ele>123.18615722656</ele>
        <time>2012-01-22T12:08:12Z</time>
      </trkpt>
      <trkpt lat="43.21656" lon="5.60263">
        <ele>118.37939453125</ele>
        <time>2012-01-22T12:08:16Z</time>
      </trkpt>
      <trkpt lat="43.21651" lon="5.60277">
        <ele>119.82141113281</ele>
        <time>2012-01-22T12:08:21Z</time>
      </trkpt>
      <trkpt lat="43.21672" lon="5.60288">
        <ele>119.3408203125</ele>
        <time>2012-01-22T12:08:33Z</time>
      </trkpt>
      <trkpt lat="43.21684" lon="5.60278">
        <ele>119.3408203125</ele>
        <time>2012-01-22T12:08:40Z</time>
      </trkpt>
      <trkpt lat="43.21684" lon="5.60289">
        <ele>117.41821289062</ele>
        <time>2012-01-22T12:08:47Z</time>
      </trkpt>
      <trkpt lat="43.21667" lon="5.60346">
        <ele>115.01489257812</ele>
        <time>2012-01-22T12:08:59Z</time>
      </trkpt>
      <trkpt lat="43.21653" lon="5.60381">
        <ele>115.01489257812</ele>
        <time>2012-01-22T12:09:05Z</time>
      </trkpt>
      <trkpt lat="43.21617" lon="5.6043">
        <ele>116.9375</ele>
        <time>2012-01-22T12:09:19Z</time>
      </trkpt>
      <trkpt lat="43.21604" lon="5.60439">
        <ele>117.89880371094</ele>
        <time>2012-01-22T12:09:27Z</time>
      </trkpt>
      <trkpt lat="43.21577" lon="5.60457">
        <ele>120.30212402344</ele>
        <time>2012-01-22T12:09:42Z</time>
      </trkpt>
      <trkpt lat="43.21547" lon="5.60473">
        <ele>121.744140625</ele>
        <time>2012-01-22T12:10:01Z</time>
      </trkpt>
      <trkpt lat="43.2152" lon="5.60458">
        <ele>124.14733886719</ele>
        <time>2012-01-22T12:10:20Z</time>
      </trkpt>
      <trkpt lat="43.21472" lon="5.60454">
        <ele>125.10876464844</ele>
        <time>2012-01-22T12:10:44Z</time>
      </trkpt>
      <trkpt lat="43.21428" lon="5.60455">
        <ele>125.10876464844</ele>
        <time>2012-01-22T12:11:01Z</time>
      </trkpt>
      <trkpt lat="43.21388" lon="5.60462">
        <ele>127.03137207031</ele>
        <time>2012-01-22T12:11:17Z</time>
      </trkpt>
      <trkpt lat="43.21366" lon="5.60441">
        <ele>127.99255371094</ele>
        <time>2012-01-22T12:11:33Z</time>
      </trkpt>
      <trkpt lat="43.21328" lon="5.6042">
        <ele>128.47338867188</ele>
        <time>2012-01-22T12:11:51Z</time>
      </trkpt>
      <trkpt lat="43.21298" lon="5.60397">
        <ele>129.91528320312</ele>
        <time>2012-01-22T12:12:05Z</time>
      </trkpt>
      <trkpt lat="43.21274" lon="5.60379">
        <ele>132.79931640625</ele>
        <time>2012-01-22T12:12:21Z</time>
      </trkpt>
      <trkpt lat="43.21254" lon="5.60361">
        <ele>133.76049804688</ele>
        <time>2012-01-22T12:12:36Z</time>
      </trkpt>
      <trkpt lat="43.21247" lon="5.60362">
        <ele>134.2412109375</ele>
        <time>2012-01-22T12:12:41Z</time>
      </trkpt>
      <trkpt lat="43.21242" lon="5.6037">
        <ele>135.20251464844</ele>
        <time>2012-01-22T12:12:47Z</time>
      </trkpt>
      <trkpt lat="43.2126" lon="5.60394">
        <ele>137.60583496094</ele>
        <time>2012-01-22T12:13:07Z</time>
      </trkpt>
      <trkpt lat="43.21266" lon="5.60402">
        <ele>138.56726074219</ele>
        <time>2012-01-22T12:13:13Z</time>
      </trkpt>
      <trkpt lat="43.21291" lon="5.60435">
        <ele>139.0478515625</ele>
        <time>2012-01-22T12:13:37Z</time>
      </trkpt>
      <trkpt lat="43.21302" lon="5.60459">
        <ele>141.45104980469</ele>
        <time>2012-01-22T12:13:53Z</time>
      </trkpt>
      <trkpt lat="43.21314" lon="5.60478">
        <ele>144.33520507812</ele>
        <time>2012-01-22T12:14:07Z</time>
      </trkpt>
      <trkpt lat="43.21324" lon="5.60491">
        <ele>145.77709960938</ele>
        <time>2012-01-22T12:14:20Z</time>
      </trkpt>
      <trkpt lat="43.21339" lon="5.60513">
        <ele>148.18041992188</ele>
        <time>2012-01-22T12:14:35Z</time>
      </trkpt>
      <trkpt lat="43.2135" lon="5.60553">
        <ele>149.1416015625</ele>
        <time>2012-01-22T12:14:58Z</time>
      </trkpt>
      <trkpt lat="43.21351" lon="5.60557">
        <ele>150.58361816406</ele>
        <time>2012-01-22T12:15:00Z</time>
      </trkpt>
      <trkpt lat="43.21353" lon="5.60562">
        <ele>151.544921875</ele>
        <time>2012-01-22T12:15:04Z</time>
      </trkpt>
      <trkpt lat="43.21359" lon="5.60573">
        <ele>152.50634765625</ele>
        <time>2012-01-22T12:15:22Z</time>
      </trkpt>
      <trkpt lat="43.2136" lon="5.60574">
        <ele>152.98693847656</ele>
        <time>2012-01-22T12:16:24Z</time>
      </trkpt>
      <trkpt lat="43.21367" lon="5.60586">
        <ele>153.94836425781</ele>
        <time>2012-01-22T12:16:44Z</time>
      </trkpt>
      <trkpt lat="43.21371" lon="5.60589">
        <ele>154.42895507812</ele>
        <time>2012-01-22T12:16:58Z</time>
      </trkpt>
      <trkpt lat="43.21372" lon="5.60589">
        <ele>154.42895507812</ele>
        <time>2012-01-22T12:16:59Z</time>
      </trkpt>
      <trkpt lat="43.21393" lon="5.60608">
        <ele>157.79357910156</ele>
        <time>2012-01-22T12:17:19Z</time>
      </trkpt>
      <trkpt lat="43.21395" lon="5.60609">
        <ele>158.27416992188</ele>
        <time>2012-01-22T12:17:21Z</time>
      </trkpt>
      <trkpt lat="43.21411" lon="5.60623">
        <ele>161.63891601562</ele>
        <time>2012-01-22T12:17:35Z</time>
      </trkpt>
      <trkpt lat="43.21432" lon="5.60638">
        <ele>165.00341796875</ele>
        <time>2012-01-22T12:17:55Z</time>
      </trkpt>
      <trkpt lat="43.21452" lon="5.6065">
        <ele>166.4453125</ele>
        <time>2012-01-22T12:18:12Z</time>
      </trkpt>
      <trkpt lat="43.21459" lon="5.60649">
        <ele>168.36804199219</ele>
        <time>2012-01-22T12:18:18Z</time>
      </trkpt>
      <trkpt lat="43.21469" lon="5.60648">
        <ele>170.77136230469</ele>
        <time>2012-01-22T12:18:26Z</time>
      </trkpt>
      <trkpt lat="43.2149" lon="5.60637">
        <ele>171.73266601562</ele>
        <time>2012-01-22T12:18:43Z</time>
      </trkpt>
      <trkpt lat="43.21523" lon="5.6064">
        <ele>174.61657714844</ele>
        <time>2012-01-22T12:19:09Z</time>
      </trkpt>
      <trkpt lat="43.21524" lon="5.60641">
        <ele>174.61657714844</ele>
        <time>2012-01-22T12:19:10Z</time>
      </trkpt>
      <trkpt lat="43.21538" lon="5.60644">
        <ele>171.25207519531</ele>
        <time>2012-01-22T12:19:20Z</time>
      </trkpt>
      <trkpt lat="43.21539" lon="5.60644">
        <ele>172.69396972656</ele>
        <time>2012-01-22T12:19:21Z</time>
      </trkpt>
      <trkpt lat="43.21545" lon="5.60646">
        <ele>174.61657714844</ele>
        <time>2012-01-22T12:19:26Z</time>
      </trkpt>
      <trkpt lat="43.21562" lon="5.60652">
        <ele>177.98120117188</ele>
        <time>2012-01-22T12:19:38Z</time>
      </trkpt>
      <trkpt lat="43.21584" lon="5.60657">
        <ele>179.42321777344</ele>
        <time>2012-01-22T12:19:56Z</time>
      </trkpt>
      <trkpt lat="43.2159" lon="5.60657">
        <ele>179.42321777344</ele>
        <time>2012-01-22T12:20:11Z</time>
      </trkpt>
      <trkpt lat="43.21592" lon="5.60657">
        <ele>180.38452148438</ele>
        <time>2012-01-22T12:20:13Z</time>
      </trkpt>
      <trkpt lat="43.21606" lon="5.60649">
        <ele>183.26843261719</ele>
        <time>2012-01-22T12:20:30Z</time>
      </trkpt>
      <trkpt lat="43.21609" lon="5.60646">
        <ele>182.30712890625</ele>
        <time>2012-01-22T12:20:34Z</time>
      </trkpt>
      <trkpt lat="43.21609" lon="5.60643">
        <ele>183.26843261719</ele>
        <time>2012-01-22T12:20:36Z</time>
      </trkpt>
      <trkpt lat="43.21613" lon="5.60636">
        <ele>184.22985839844</ele>
        <time>2012-01-22T12:20:44Z</time>
      </trkpt>
      <trkpt lat="43.21623" lon="5.60642">
        <ele>187.59436035156</ele>
        <time>2012-01-22T12:20:59Z</time>
      </trkpt>
      <trkpt lat="43.21626" lon="5.60653">
        <ele>187.59436035156</ele>
        <time>2012-01-22T12:21:10Z</time>
      </trkpt>
      <trkpt lat="43.21631" lon="5.60657">
        <ele>187.11376953125</ele>
        <time>2012-01-22T12:21:17Z</time>
      </trkpt>
      <trkpt lat="43.21632" lon="5.60657">
        <ele>187.11376953125</ele>
        <time>2012-01-22T12:21:18Z</time>
      </trkpt>
      <trkpt lat="43.21634" lon="5.60655">
        <ele>188.55578613281</ele>
        <time>2012-01-22T12:21:20Z</time>
      </trkpt>
      <trkpt lat="43.21637" lon="5.6065">
        <ele>189.99768066406</ele>
        <time>2012-01-22T12:21:25Z</time>
      </trkpt>
      <trkpt lat="43.21644" lon="5.60633">
        <ele>192.40112304688</ele>
        <time>2012-01-22T12:21:42Z</time>
      </trkpt>
      <trkpt lat="43.21652" lon="5.60631">
        <ele>192.40112304688</ele>
        <time>2012-01-22T12:21:50Z</time>
      </trkpt>
      <trkpt lat="43.21662" lon="5.60656">
        <ele>193.3623046875</ele>
        <time>2012-01-22T12:22:13Z</time>
      </trkpt>
      <trkpt lat="43.2167" lon="5.60673">
        <ele>194.80432128906</ele>
        <time>2012-01-22T12:22:35Z</time>
      </trkpt>
      <trkpt lat="43.21686" lon="5.60684">
        <ele>197.68823242188</ele>
        <time>2012-01-22T12:22:49Z</time>
      </trkpt>
      <trkpt lat="43.21693" lon="5.60688">
        <ele>199.61083984375</ele>
        <time>2012-01-22T12:22:55Z</time>
      </trkpt>
      <trkpt lat="43.21713" lon="5.60701">
        <ele>199.61083984375</ele>
        <time>2012-01-22T12:23:12Z</time>
      </trkpt>
      <trkpt lat="43.21726" lon="5.60714">
        <ele>201.53356933594</ele>
        <time>2012-01-22T12:23:25Z</time>
      </trkpt>
      <trkpt lat="43.21742" lon="5.60734">
        <ele>202.97546386719</ele>
        <time>2012-01-22T12:23:42Z</time>
      </trkpt>
      <trkpt lat="43.21748" lon="5.60742">
        <ele>205.85949707031</ele>
        <time>2012-01-22T12:23:49Z</time>
      </trkpt>
      <trkpt lat="43.21757" lon="5.60751">
        <ele>204.41748046875</ele>
        <time>2012-01-22T12:23:58Z</time>
      </trkpt>
      <trkpt lat="43.21759" lon="5.60754">
        <ele>208.74340820312</ele>
        <time>2012-01-22T12:24:01Z</time>
      </trkpt>
      <trkpt lat="43.21762" lon="5.60756">
        <ele>204.89807128906</ele>
        <time>2012-01-22T12:24:04Z</time>
      </trkpt>
      <trkpt lat="43.21763" lon="5.60758">
        <ele>204.89807128906</ele>
        <time>2012-01-22T12:24:05Z</time>
      </trkpt>
      <trkpt lat="43.2177" lon="5.60764">
        <ele>206.34008789062</ele>
        <time>2012-01-22T12:24:11Z</time>
      </trkpt>
      <trkpt lat="43.21783" lon="5.60778">
        <ele>204.89807128906</ele>
        <time>2012-01-22T12:24:22Z</time>
      </trkpt>
      <trkpt lat="43.21804" lon="5.60799">
        <ele>207.78210449219</ele>
        <time>2012-01-22T12:24:39Z</time>
      </trkpt>
      <trkpt lat="43.21821" lon="5.60832">
        <ele>208.74340820312</ele>
        <time>2012-01-22T12:25:03Z</time>
      </trkpt>
      <trkpt lat="43.21825" lon="5.60874">
        <ele>211.14672851562</ele>
        <time>2012-01-22T12:25:29Z</time>
      </trkpt>
      <trkpt lat="43.21841" lon="5.60919">
        <ele>211.62744140625</ele>
        <time>2012-01-22T12:25:53Z</time>
      </trkpt>
      <trkpt lat="43.21845" lon="5.60924">
        <ele>213.0693359375</ele>
        <time>2012-01-22T12:25:56Z</time>
      </trkpt>
      <trkpt lat="43.21869" lon="5.6094">
        <ele>214.03063964844</ele>
        <time>2012-01-22T12:26:16Z</time>
      </trkpt>
      <trkpt lat="43.21873" lon="5.60942">
        <ele>214.51123046875</ele>
        <time>2012-01-22T12:26:19Z</time>
      </trkpt>
      <trkpt lat="43.21889" lon="5.60956">
        <ele>215.47265625</ele>
        <time>2012-01-22T12:26:35Z</time>
      </trkpt>
      <trkpt lat="43.21892" lon="5.60959">
        <ele>215.47265625</ele>
        <time>2012-01-22T12:26:38Z</time>
      </trkpt>
      <trkpt lat="43.21894" lon="5.60962">
        <ele>215.95324707031</ele>
        <time>2012-01-22T12:26:41Z</time>
      </trkpt>
      <trkpt lat="43.21904" lon="5.60975">
        <ele>216.91467285156</ele>
        <time>2012-01-22T12:26:53Z</time>
      </trkpt>
      <trkpt lat="43.21913" lon="5.60989">
        <ele>217.39538574219</ele>
        <time>2012-01-22T12:27:05Z</time>
      </trkpt>
      <trkpt lat="43.21911" lon="5.60997">
        <ele>216.91467285156</ele>
        <time>2012-01-22T12:27:09Z</time>
      </trkpt>
      <trkpt lat="43.21903" lon="5.61014">
        <ele>215.47265625</ele>
        <time>2012-01-22T12:27:18Z</time>
      </trkpt>
      <trkpt lat="43.21898" lon="5.61021">
        <ele>214.03063964844</ele>
        <time>2012-01-22T12:27:22Z</time>
      </trkpt>
      <trkpt lat="43.21888" lon="5.61032">
        <ele>212.10803222656</ele>
        <time>2012-01-22T12:27:26Z</time>
      </trkpt>
      <trkpt lat="43.21876" lon="5.61048">
        <ele>210.18542480469</ele>
        <time>2012-01-22T12:27:38Z</time>
      </trkpt>
      <trkpt lat="43.21875" lon="5.61048">
        <ele>210.18542480469</ele>
        <time>2012-01-22T12:27:39Z</time>
      </trkpt>
      <trkpt lat="43.21867" lon="5.61065">
        <ele>208.26281738281</ele>
        <time>2012-01-22T12:27:45Z</time>
      </trkpt>
      <trkpt lat="43.21862" lon="5.61078">
        <ele>206.34008789062</ele>
        <time>2012-01-22T12:27:48Z</time>
      </trkpt>
      <trkpt lat="43.21858" lon="5.61088">
        <ele>204.89807128906</ele>
        <time>2012-01-22T12:27:58Z</time>
      </trkpt>
      <trkpt lat="43.21861" lon="5.6109">
        <ele>203.45617675781</ele>
        <time>2012-01-22T12:28:05Z</time>
      </trkpt>
      <trkpt lat="43.21878" lon="5.61096">
        <ele>203.45617675781</ele>
        <time>2012-01-22T12:28:22Z</time>
      </trkpt>
      <trkpt lat="43.21886" lon="5.61103">
        <ele>202.01428222656</ele>
        <time>2012-01-22T12:28:28Z</time>
      </trkpt>
      <trkpt lat="43.21895" lon="5.61111">
        <ele>199.13012695312</ele>
        <time>2012-01-22T12:28:38Z</time>
      </trkpt>
      <trkpt lat="43.21904" lon="5.61123">
        <ele>195.28491210938</ele>
        <time>2012-01-22T12:28:48Z</time>
      </trkpt>
      <trkpt lat="43.21909" lon="5.61121">
        <ele>194.32373046875</ele>
        <time>2012-01-22T12:29:00Z</time>
      </trkpt>
      <trkpt lat="43.2192" lon="5.61117">
        <ele>190.958984375</ele>
        <time>2012-01-22T12:29:17Z</time>
      </trkpt>
      <trkpt lat="43.21928" lon="5.61115">
        <ele>187.59436035156</ele>
        <time>2012-01-22T12:29:30Z</time>
      </trkpt>
      <trkpt lat="43.21934" lon="5.61116">
        <ele>184.22985839844</ele>
        <time>2012-01-22T12:29:43Z</time>
      </trkpt>
      <trkpt lat="43.2194" lon="5.61121">
        <ele>181.34582519531</ele>
        <time>2012-01-22T12:29:59Z</time>
      </trkpt>
      <trkpt lat="43.21942" lon="5.61126">
        <ele>177.50061035156</ele>
        <time>2012-01-22T12:30:13Z</time>
      </trkpt>
      <trkpt lat="43.21943" lon="5.61128">
        <ele>180.865234375</ele>
        <time>2012-01-22T12:30:19Z</time>
      </trkpt>
      <trkpt lat="43.21945" lon="5.61129">
        <ele>177.02001953125</ele>
        <time>2012-01-22T12:30:26Z</time>
      </trkpt>
      <trkpt lat="43.21945" lon="5.6113">
        <ele>176.05859375</ele>
        <time>2012-01-22T12:30:28Z</time>
      </trkpt>
      <trkpt lat="43.21951" lon="5.61139">
        <ele>173.17468261719</ele>
        <time>2012-01-22T12:30:50Z</time>
      </trkpt>
      <trkpt lat="43.21961" lon="5.61146">
        <ele>169.81005859375</ele>
        <time>2012-01-22T12:31:03Z</time>
      </trkpt>
      <trkpt lat="43.21972" lon="5.61155">
        <ele>166.92602539062</ele>
        <time>2012-01-22T12:31:08Z</time>
      </trkpt>
      <trkpt lat="43.21979" lon="5.61162">
        <ele>165.48413085938</ele>
        <time>2012-01-22T12:31:11Z</time>
      </trkpt>
      <trkpt lat="43.21985" lon="5.61171">
        <ele>164.52270507812</ele>
        <time>2012-01-22T12:31:14Z</time>
      </trkpt>
      <trkpt lat="43.21981" lon="5.61215">
        <ele>166.92602539062</ele>
        <time>2012-01-22T12:31:31Z</time>
      </trkpt>
      <trkpt lat="43.21982" lon="5.61236">
        <ele>169.32946777344</ele>
        <time>2012-01-22T12:31:40Z</time>
      </trkpt>
      <trkpt lat="43.21988" lon="5.61251">
        <ele>168.84875488281</ele>
        <time>2012-01-22T12:31:53Z</time>
      </trkpt>
      <trkpt lat="43.21991" lon="5.61259">
        <ele>169.32946777344</ele>
        <time>2012-01-22T12:32:04Z</time>
      </trkpt>
      <trkpt lat="43.22" lon="5.61272">
        <ele>170.77136230469</ele>
        <time>2012-01-22T12:32:22Z</time>
      </trkpt>
      <trkpt lat="43.22011" lon="5.61288">
        <ele>172.69396972656</ele>
        <time>2012-01-22T12:32:39Z</time>
      </trkpt>
      <trkpt lat="43.22025" lon="5.613">
        <ele>175.09729003906</ele>
        <time>2012-01-22T12:32:51Z</time>
      </trkpt>
      <trkpt lat="43.22048" lon="5.61313">
        <ele>177.98120117188</ele>
        <time>2012-01-22T12:33:11Z</time>
      </trkpt>
      <trkpt lat="43.22063" lon="5.61322">
        <ele>178.94262695312</ele>
        <time>2012-01-22T12:33:24Z</time>
      </trkpt>
      <trkpt lat="43.22065" lon="5.61333">
        <ele>178.94262695312</ele>
        <time>2012-01-22T12:33:30Z</time>
      </trkpt>
      <trkpt lat="43.22064" lon="5.61365">
        <ele>180.865234375</ele>
        <time>2012-01-22T12:33:48Z</time>
      </trkpt>
      <trkpt lat="43.22089" lon="5.61371">
        <ele>181.34582519531</ele>
        <time>2012-01-22T12:34:03Z</time>
      </trkpt>
      <trkpt lat="43.22121" lon="5.61382">
        <ele>179.90380859375</ele>
        <time>2012-01-22T12:34:19Z</time>
      </trkpt>
      <trkpt lat="43.22158" lon="5.61395">
        <ele>177.02001953125</ele>
        <time>2012-01-22T12:34:30Z</time>
      </trkpt>
      <trkpt lat="43.22163" lon="5.61398">
        <ele>175.57788085938</ele>
        <time>2012-01-22T12:34:32Z</time>
      </trkpt>
      <trkpt lat="43.22169" lon="5.61399">
        <ele>177.50061035156</ele>
        <time>2012-01-22T12:34:36Z</time>
      </trkpt>
      <trkpt lat="43.2218" lon="5.6141">
        <ele>177.50061035156</ele>
        <time>2012-01-22T12:34:52Z</time>
      </trkpt>
      <trkpt lat="43.22171" lon="5.6141">
        <ele>175.57788085938</ele>
        <time>2012-01-22T12:34:58Z</time>
      </trkpt>
      <trkpt lat="43.2217" lon="5.61411">
        <ele>176.05859375</ele>
        <time>2012-01-22T12:35:01Z</time>
      </trkpt>
      <trkpt lat="43.22159" lon="5.61414">
        <ele>173.17468261719</ele>
        <time>2012-01-22T12:35:07Z</time>
      </trkpt>
      <trkpt lat="43.22148" lon="5.61419">
        <ele>169.81005859375</ele>
        <time>2012-01-22T12:35:12Z</time>
      </trkpt>
      <trkpt lat="43.22144" lon="5.61422">
        <ele>168.84875488281</ele>
        <time>2012-01-22T12:35:14Z</time>
      </trkpt>
      <trkpt lat="43.22132" lon="5.61428">
        <ele>165.48413085938</ele>
        <time>2012-01-22T12:35:20Z</time>
      </trkpt>
      <trkpt lat="43.22123" lon="5.61433">
        <ele>164.04211425781</ele>
        <time>2012-01-22T12:35:23Z</time>
      </trkpt>
      <trkpt lat="43.2211" lon="5.61441">
        <ele>159.71618652344</ele>
        <time>2012-01-22T12:35:27Z</time>
      </trkpt>
      <trkpt lat="43.2209" lon="5.61458">
        <ele>155.87097167969</ele>
        <time>2012-01-22T12:35:33Z</time>
      </trkpt>
      <trkpt lat="43.22072" lon="5.61463">
        <ele>151.544921875</ele>
        <time>2012-01-22T12:35:40Z</time>
      </trkpt>
      <trkpt lat="43.22066" lon="5.61466">
        <ele>150.58361816406</ele>
        <time>2012-01-22T12:35:42Z</time>
      </trkpt>
      <trkpt lat="43.22057" lon="5.61471">
        <ele>149.62231445312</ele>
        <time>2012-01-22T12:35:45Z</time>
      </trkpt>
      <trkpt lat="43.2204" lon="5.61497">
        <ele>147.21899414062</ele>
        <time>2012-01-22T12:35:54Z</time>
      </trkpt>
      <trkpt lat="43.22032" lon="5.61504">
        <ele>146.2578125</ele>
        <time>2012-01-22T12:35:57Z</time>
      </trkpt>
      <trkpt lat="43.22009" lon="5.61525">
        <ele>142.41247558594</ele>
        <time>2012-01-22T12:36:05Z</time>
      </trkpt>
      <trkpt lat="43.22006" lon="5.61528">
        <ele>142.41247558594</ele>
        <time>2012-01-22T12:36:06Z</time>
      </trkpt>
      <trkpt lat="43.22" lon="5.61535">
        <ele>141.93176269531</ele>
        <time>2012-01-22T12:36:08Z</time>
      </trkpt>
      <trkpt lat="43.21995" lon="5.61544">
        <ele>141.45104980469</ele>
        <time>2012-01-22T12:36:10Z</time>
      </trkpt>
      <trkpt lat="43.2199" lon="5.6155">
        <ele>140.97045898438</ele>
        <time>2012-01-22T12:36:12Z</time>
      </trkpt>
      <trkpt lat="43.21983" lon="5.61566">
        <ele>140.48986816406</ele>
        <time>2012-01-22T12:36:16Z</time>
      </trkpt>
      <trkpt lat="43.21984" lon="5.61583">
        <ele>140.48986816406</ele>
        <time>2012-01-22T12:36:20Z</time>
      </trkpt>
      <trkpt lat="43.21983" lon="5.616">
        <ele>139.52844238281</ele>
        <time>2012-01-22T12:36:25Z</time>
      </trkpt>
      <trkpt lat="43.21978" lon="5.61606">
        <ele>138.56726074219</ele>
        <time>2012-01-22T12:36:29Z</time>
      </trkpt>
      <trkpt lat="43.21955" lon="5.61633">
        <ele>139.0478515625</ele>
        <time>2012-01-22T12:36:42Z</time>
      </trkpt>
      <trkpt lat="43.21943" lon="5.61645">
        <ele>140.97045898438</ele>
        <time>2012-01-22T12:36:48Z</time>
      </trkpt>
      <trkpt lat="43.21928" lon="5.61656">
        <ele>141.45104980469</ele>
        <time>2012-01-22T12:36:56Z</time>
      </trkpt>
      <trkpt lat="43.21907" lon="5.61665">
        <ele>141.93176269531</ele>
        <time>2012-01-22T12:37:12Z</time>
      </trkpt>
      <trkpt lat="43.21902" lon="5.61666">
        <ele>143.85437011719</ele>
        <time>2012-01-22T12:37:30Z</time>
      </trkpt>
      <trkpt lat="43.21886" lon="5.61673">
        <ele>146.73840332031</ele>
        <time>2012-01-22T12:37:47Z</time>
      </trkpt>
      <trkpt lat="43.21875" lon="5.61677">
        <ele>148.18041992188</ele>
        <time>2012-01-22T12:38:07Z</time>
      </trkpt>
      <trkpt lat="43.21847" lon="5.61694">
        <ele>148.18041992188</ele>
        <time>2012-01-22T12:38:24Z</time>
      </trkpt>
      <trkpt lat="43.21804" lon="5.61704">
        <ele>145.77709960938</ele>
        <time>2012-01-22T12:38:39Z</time>
      </trkpt>
      <trkpt lat="43.2178" lon="5.61705">
        <ele>145.29638671875</ele>
        <time>2012-01-22T12:38:44Z</time>
      </trkpt>
      <trkpt lat="43.21763" lon="5.61702">
        <ele>143.85437011719</ele>
        <time>2012-01-22T12:38:48Z</time>
      </trkpt>
      <trkpt lat="43.21744" lon="5.61693">
        <ele>142.89306640625</ele>
        <time>2012-01-22T12:38:53Z</time>
      </trkpt>
      <trkpt lat="43.21726" lon="5.61689">
        <ele>142.89306640625</ele>
        <time>2012-01-22T12:38:57Z</time>
      </trkpt>
      <trkpt lat="43.21699" lon="5.61707">
        <ele>143.37365722656</ele>
        <time>2012-01-22T12:39:05Z</time>
      </trkpt>
      <trkpt lat="43.21696" lon="5.61718">
        <ele>142.89306640625</ele>
        <time>2012-01-22T12:39:07Z</time>
      </trkpt>
      <trkpt lat="43.21669" lon="5.61742">
        <ele>139.52844238281</ele>
        <time>2012-01-22T12:39:15Z</time>
      </trkpt>
      <trkpt lat="43.21666" lon="5.61744">
        <ele>139.52844238281</ele>
        <time>2012-01-22T12:39:16Z</time>
      </trkpt>
      <trkpt lat="43.21663" lon="5.61748">
        <ele>139.0478515625</ele>
        <time>2012-01-22T12:39:19Z</time>
      </trkpt>
      <trkpt lat="43.21656" lon="5.61751">
        <ele>139.0478515625</ele>
        <time>2012-01-22T12:39:23Z</time>
      </trkpt>
      <trkpt lat="43.21651" lon="5.61749">
        <ele>138.56726074219</ele>
        <time>2012-01-22T12:39:35Z</time>
      </trkpt>
      <trkpt lat="43.2165" lon="5.61747">
        <ele>139.0478515625</ele>
        <time>2012-01-22T12:39:59Z</time>
      </trkpt>
      <trkpt lat="43.21651" lon="5.61747">
        <ele>137.60583496094</ele>
        <time>2012-01-22T12:40:03Z</time>
      </trkpt>
      <trkpt lat="43.2165" lon="5.61746">
        <ele>140.97045898438</ele>
        <time>2012-01-22T12:40:19Z</time>
      </trkpt>
      <trkpt lat="43.2165" lon="5.61746">
        <ele>141.93176269531</ele>
        <time>2012-01-22T12:40:21Z</time>
      </trkpt>
      <trkpt lat="43.21652" lon="5.61746">
        <ele>140.00915527344</ele>
        <time>2012-01-22T12:40:24Z</time>
      </trkpt>
      <trkpt lat="43.21654" lon="5.61746">
        <ele>138.08654785156</ele>
        <time>2012-01-22T12:40:31Z</time>
      </trkpt>
      <trkpt lat="43.21662" lon="5.61746">
        <ele>139.52844238281</ele>
        <time>2012-01-22T12:40:46Z</time>
      </trkpt>
      <trkpt lat="43.21662" lon="5.61743">
        <ele>139.52844238281</ele>
        <time>2012-01-22T12:41:06Z</time>
      </trkpt>
      <trkpt lat="43.21659" lon="5.61746">
        <ele>137.60583496094</ele>
        <time>2012-01-22T12:43:50Z</time>
      </trkpt>
      <trkpt lat="43.21631" lon="5.61746">
        <ele>136.16394042969</ele>
        <time>2012-01-22T12:44:02Z</time>
      </trkpt>
      <trkpt lat="43.21603" lon="5.61751">
        <ele>133.27990722656</ele>
        <time>2012-01-22T12:44:10Z</time>
      </trkpt>
      <trkpt lat="43.21569" lon="5.6176">
        <ele>130.87670898438</ele>
        <time>2012-01-22T12:44:23Z</time>
      </trkpt>
      <trkpt lat="43.2157" lon="5.61765">
        <ele>130.39599609375</ele>
        <time>2012-01-22T12:44:33Z</time>
      </trkpt>
      <trkpt lat="43.21568" lon="5.61763">
        <ele>130.87670898438</ele>
        <time>2012-01-22T12:44:43Z</time>
      </trkpt>
      <trkpt lat="43.2156" lon="5.61763">
        <ele>129.43469238281</ele>
        <time>2012-01-22T12:44:47Z</time>
      </trkpt>
      <trkpt lat="43.21553" lon="5.61766">
        <ele>128.47338867188</ele>
        <time>2012-01-22T12:44:49Z</time>
      </trkpt>
      <trkpt lat="43.21539" lon="5.61773">
        <ele>126.06994628906</ele>
        <time>2012-01-22T12:44:52Z</time>
      </trkpt>
      <trkpt lat="43.21533" lon="5.61776">
        <ele>125.10876464844</ele>
        <time>2012-01-22T12:44:53Z</time>
      </trkpt>
      <trkpt lat="43.21515" lon="5.61781">
        <ele>123.18615722656</ele>
        <time>2012-01-22T12:44:56Z</time>
      </trkpt>
      <trkpt lat="43.21489" lon="5.61789">
        <ele>122.22473144531</ele>
        <time>2012-01-22T12:45:01Z</time>
      </trkpt>
      <trkpt lat="43.21478" lon="5.6179">
        <ele>121.26354980469</ele>
        <time>2012-01-22T12:45:03Z</time>
      </trkpt>
      <trkpt lat="43.21462" lon="5.6179">
        <ele>119.3408203125</ele>
        <time>2012-01-22T12:45:06Z</time>
      </trkpt>
      <trkpt lat="43.21428" lon="5.61806">
        <ele>115.97619628906</ele>
        <time>2012-01-22T12:45:12Z</time>
      </trkpt>
      <trkpt lat="43.21397" lon="5.61828">
        <ele>111.65026855469</ele>
        <time>2012-01-22T12:45:19Z</time>
      </trkpt>
      <trkpt lat="43.21392" lon="5.61832">
        <ele>111.16955566406</ele>
        <time>2012-01-22T12:45:20Z</time>
      </trkpt>
      <trkpt lat="43.21365" lon="5.61859">
        <ele>107.32434082031</ele>
        <time>2012-01-22T12:45:26Z</time>
      </trkpt>
      <trkpt lat="43.21339" lon="5.6188">
        <ele>104.92102050781</ele>
        <time>2012-01-22T12:45:35Z</time>
      </trkpt>
      <trkpt lat="43.21327" lon="5.61886">
        <ele>104.4404296875</ele>
        <time>2012-01-22T12:45:47Z</time>
      </trkpt>
      <trkpt lat="43.21329" lon="5.61888">
        <ele>104.4404296875</ele>
        <time>2012-01-22T12:45:59Z</time>
      </trkpt>
      <trkpt lat="43.21328" lon="5.61889">
        <ele>104.4404296875</ele>
        <time>2012-01-22T12:46:14Z</time>
      </trkpt>
      <trkpt lat="43.21325" lon="5.6189">
        <ele>104.4404296875</ele>
        <time>2012-01-22T12:46:39Z</time>
      </trkpt>
      <trkpt lat="43.21325" lon="5.61893">
        <ele>104.4404296875</ele>
        <time>2012-01-22T12:47:04Z</time>
      </trkpt>
      <trkpt lat="43.21325" lon="5.61893">
        <ele>104.92102050781</ele>
        <time>2012-01-22T12:47:36Z</time>
      </trkpt>
      <trkpt lat="43.21325" lon="5.61893">
        <ele>108.76623535156</ele>
        <time>2012-01-22T12:47:44Z</time>
      </trkpt>
      <trkpt lat="43.21325" lon="5.61893">
        <ele>107.80505371094</ele>
        <time>2012-01-22T12:47:45Z</time>
      </trkpt>
      <trkpt lat="43.21325" lon="5.61893">
        <ele>109.72766113281</ele>
        <time>2012-01-22T12:47:48Z</time>
      </trkpt>
      <trkpt lat="43.21325" lon="5.61893">
        <ele>107.80505371094</ele>
        <time>2012-01-22T12:47:50Z</time>
      </trkpt>
      <trkpt lat="43.21325" lon="5.61893">
        <ele>104.92102050781</ele>
        <time>2012-01-22T12:48:04Z</time>
      </trkpt>
      <trkpt lat="43.21325" lon="5.61893">
        <ele>107.80505371094</ele>
        <time>2012-01-22T12:48:11Z</time>
      </trkpt>
      <trkpt lat="43.21325" lon="5.61893">
        <ele>107.80505371094</ele>
        <time>2012-01-22T12:48:12Z</time>
      </trkpt>
      <trkpt lat="43.21325" lon="5.61893">
        <ele>106.36303710938</ele>
        <time>2012-01-22T12:48:14Z</time>
      </trkpt>
      <trkpt lat="43.21325" lon="5.61893">
        <ele>104.4404296875</ele>
        <time>2012-01-22T12:48:41Z</time>
      </trkpt>
      <trkpt lat="43.21324" lon="5.61889">
        <ele>103.95971679688</ele>
        <time>2012-01-22T12:49:44Z</time>
      </trkpt>
      <trkpt lat="43.21312" lon="5.61891">
        <ele>102.037109375</ele>
        <time>2012-01-22T12:49:50Z</time>
      </trkpt>
      <trkpt lat="43.21291" lon="5.61902">
        <ele>100.59509277344</ele>
        <time>2012-01-22T12:49:57Z</time>
      </trkpt>
      <trkpt lat="43.21275" lon="5.61913">
        <ele>99.153076171875</ele>
        <time>2012-01-22T12:50:02Z</time>
      </trkpt>
      <trkpt lat="43.21235" lon="5.61939">
        <ele>95.788452148438</ele>
        <time>2012-01-22T12:50:14Z</time>
      </trkpt>
      <trkpt lat="43.21214" lon="5.6195">
        <ele>92.423950195312</ele>
        <time>2012-01-22T12:50:19Z</time>
      </trkpt>
      <trkpt lat="43.21202" lon="5.61955">
        <ele>91.462524414062</ele>
        <time>2012-01-22T12:50:21Z</time>
      </trkpt>
      <trkpt lat="43.2119" lon="5.61961">
        <ele>91.462524414062</ele>
        <time>2012-01-22T12:50:23Z</time>
      </trkpt>
      <trkpt lat="43.21171" lon="5.61969">
        <ele>90.020629882812</ele>
        <time>2012-01-22T12:50:26Z</time>
      </trkpt>
      <trkpt lat="43.21136" lon="5.61992">
        <ele>88.098022460938</ele>
        <time>2012-01-22T12:50:33Z</time>
      </trkpt>
      <trkpt lat="43.21131" lon="5.61996">
        <ele>88.098022460938</ele>
        <time>2012-01-22T12:50:34Z</time>
      </trkpt>
      <trkpt lat="43.21082" lon="5.62044">
        <ele>84.7333984375</ele>
        <time>2012-01-22T12:50:46Z</time>
      </trkpt>
      <trkpt lat="43.21054" lon="5.62067">
        <ele>81.368774414062</ele>
        <time>2012-01-22T12:50:52Z</time>
      </trkpt>
      <trkpt lat="43.21049" lon="5.62071">
        <ele>81.368774414062</ele>
        <time>2012-01-22T12:50:53Z</time>
      </trkpt>
      <trkpt lat="43.21012" lon="5.62099">
        <ele>77.5234375</ele>
        <time>2012-01-22T12:51:00Z</time>
      </trkpt>
      <trkpt lat="43.21007" lon="5.62103">
        <ele>76.562133789062</ele>
        <time>2012-01-22T12:51:01Z</time>
      </trkpt>
      <trkpt lat="43.20998" lon="5.62109">
        <ele>76.081420898438</ele>
        <time>2012-01-22T12:51:03Z</time>
      </trkpt>
      <trkpt lat="43.20981" lon="5.62125">
        <ele>74.158813476562</ele>
        <time>2012-01-22T12:51:10Z</time>
      </trkpt>
      <trkpt lat="43.20982" lon="5.62145">
        <ele>72.236206054688</ele>
        <time>2012-01-22T12:51:14Z</time>
      </trkpt>
      <trkpt lat="43.20991" lon="5.62189">
        <ele>67.910278320312</ele>
        <time>2012-01-22T12:51:19Z</time>
      </trkpt>
      <trkpt lat="43.20999" lon="5.62221">
        <ele>64.545654296875</ele>
        <time>2012-01-22T12:51:22Z</time>
      </trkpt>
      <trkpt lat="43.21003" lon="5.62243">
        <ele>63.584350585938</ele>
        <time>2012-01-22T12:51:24Z</time>
      </trkpt>
      <trkpt lat="43.21008" lon="5.62278">
        <ele>60.2197265625</ele>
        <time>2012-01-22T12:51:27Z</time>
      </trkpt>
      <trkpt lat="43.21013" lon="5.62317">
        <ele>57.816528320312</ele>
        <time>2012-01-22T12:51:30Z</time>
      </trkpt>
      <trkpt lat="43.21018" lon="5.62391">
        <ele>55.4130859375</ele>
        <time>2012-01-22T12:51:36Z</time>
      </trkpt>
      <trkpt lat="43.21016" lon="5.62432">
        <ele>59.739135742188</ele>
        <time>2012-01-22T12:51:40Z</time>
      </trkpt>
      <trkpt lat="43.21016" lon="5.6244">
        <ele>59.739135742188</ele>
        <time>2012-01-22T12:51:41Z</time>
      </trkpt>
      <trkpt lat="43.21012" lon="5.62502">
        <ele>60.700317382812</ele>
        <time>2012-01-22T12:51:52Z</time>
      </trkpt>
      <trkpt lat="43.21007" lon="5.62554">
        <ele>60.2197265625</ele>
        <time>2012-01-22T12:52:06Z</time>
      </trkpt>
      <trkpt lat="43.21005" lon="5.62553">
        <ele>61.181030273438</ele>
        <time>2012-01-22T12:52:50Z</time>
      </trkpt>
      <trkpt lat="43.21007" lon="5.62555">
        <ele>61.181030273438</ele>
        <time>2012-01-22T12:53:12Z</time>
      </trkpt>
      <trkpt lat="43.21013" lon="5.62542">
        <ele>62.142333984375</ele>
        <time>2012-01-22T12:53:19Z</time>
      </trkpt>
      <trkpt lat="43.21025" lon="5.62466">
        <ele>60.2197265625</ele>
        <time>2012-01-22T12:53:37Z</time>
      </trkpt>
      <trkpt lat="43.21033" lon="5.62426">
        <ele>62.142333984375</ele>
        <time>2012-01-22T12:53:47Z</time>
      </trkpt>
      <trkpt lat="43.21063" lon="5.62371">
        <ele>64.065063476562</ele>
        <time>2012-01-22T12:54:09Z</time>
      </trkpt>
      <trkpt lat="43.21102" lon="5.62324">
        <ele>63.584350585938</ele>
        <time>2012-01-22T12:54:29Z</time>
      </trkpt>
      <trkpt lat="43.21125" lon="5.62302">
        <ele>66.948974609375</ele>
        <time>2012-01-22T12:54:42Z</time>
      </trkpt>
      <trkpt lat="43.21154" lon="5.62301">
        <ele>69.352294921875</ele>
        <time>2012-01-22T12:54:59Z</time>
      </trkpt>
      <trkpt lat="43.21183" lon="5.62326">
        <ele>71.27490234375</ele>
        <time>2012-01-22T12:55:16Z</time>
      </trkpt>
      <trkpt lat="43.21204" lon="5.6235">
        <ele>70.794189453125</ele>
        <time>2012-01-22T12:55:25Z</time>
      </trkpt>
      <trkpt lat="43.21214" lon="5.62361">
        <ele>69.352294921875</ele>
        <time>2012-01-22T12:55:29Z</time>
      </trkpt>
      <trkpt lat="43.21227" lon="5.62378">
        <ele>70.794189453125</ele>
        <time>2012-01-22T12:55:34Z</time>
      </trkpt>
      <trkpt lat="43.21272" lon="5.62451">
        <ele>68.390869140625</ele>
        <time>2012-01-22T12:55:52Z</time>
      </trkpt>
      <trkpt lat="43.21279" lon="5.62472">
        <ele>71.27490234375</ele>
        <time>2012-01-22T12:55:57Z</time>
      </trkpt>
      <trkpt lat="43.21286" lon="5.62523">
        <ele>73.197631835938</ele>
        <time>2012-01-22T12:56:14Z</time>
      </trkpt>
      <trkpt lat="43.21287" lon="5.62526">
        <ele>73.197631835938</ele>
        <time>2012-01-22T12:56:15Z</time>
      </trkpt>
      <trkpt lat="43.21295" lon="5.62573">
        <ele>72.716918945312</ele>
        <time>2012-01-22T12:56:30Z</time>
      </trkpt>
      <trkpt lat="43.21321" lon="5.62623">
        <ele>73.197631835938</ele>
        <time>2012-01-22T12:56:47Z</time>
      </trkpt>
      <trkpt lat="43.2134" lon="5.62665">
        <ele>75.600830078125</ele>
        <time>2012-01-22T12:57:03Z</time>
      </trkpt>
      <trkpt lat="43.2137" lon="5.62725">
        <ele>76.562133789062</ele>
        <time>2012-01-22T12:57:23Z</time>
      </trkpt>
      <trkpt lat="43.21393" lon="5.62747">
        <ele>77.5234375</ele>
        <time>2012-01-22T12:57:35Z</time>
      </trkpt>
      <trkpt lat="43.21399" lon="5.62741">
        <ele>78.004028320312</ele>
        <time>2012-01-22T12:57:40Z</time>
      </trkpt>
      <trkpt lat="43.21404" lon="5.62701">
        <ele>80.88818359375</ele>
        <time>2012-01-22T12:57:56Z</time>
      </trkpt>
      <trkpt lat="43.21411" lon="5.62661">
        <ele>83.77197265625</ele>
        <time>2012-01-22T12:58:11Z</time>
      </trkpt>
      <trkpt lat="43.21425" lon="5.62594">
        <ele>84.7333984375</ele>
        <time>2012-01-22T12:58:36Z</time>
      </trkpt>
      <trkpt lat="43.21445" lon="5.62521">
        <ele>87.6171875</ele>
        <time>2012-01-22T12:59:01Z</time>
      </trkpt>
      <trkpt lat="43.21469" lon="5.62457">
        <ele>88.098022460938</ele>
        <time>2012-01-22T12:59:22Z</time>
      </trkpt>
      <trkpt lat="43.21497" lon="5.62411">
        <ele>90.020629882812</ele>
        <time>2012-01-22T12:59:40Z</time>
      </trkpt>
      <trkpt lat="43.21505" lon="5.62402">
        <ele>90.98193359375</ele>
        <time>2012-01-22T12:59:45Z</time>
      </trkpt>
      <trkpt lat="43.21529" lon="5.62371">
        <ele>91.943237304688</ele>
        <time>2012-01-22T13:00:02Z</time>
      </trkpt>
      <trkpt lat="43.21552" lon="5.62378">
        <ele>94.8271484375</ele>
        <time>2012-01-22T13:00:15Z</time>
      </trkpt>
      <trkpt lat="43.21566" lon="5.62388">
        <ele>94.346557617188</ele>
        <time>2012-01-22T13:00:30Z</time>
      </trkpt>
      <trkpt lat="43.21567" lon="5.62389">
        <ele>94.8271484375</ele>
        <time>2012-01-22T13:00:51Z</time>
      </trkpt>
      <trkpt lat="43.21567" lon="5.62389">
        <ele>95.788452148438</ele>
        <time>2012-01-22T13:01:00Z</time>
      </trkpt>
      <trkpt lat="43.21567" lon="5.62389">
        <ele>96.749877929688</ele>
        <time>2012-01-22T13:01:33Z</time>
      </trkpt>
    </trkseg>
  </trk>
</gpx>